<?xml version="1.0" encoding="UTF-8" standalone="no" ?>
<gpx xmlns="http://www.topografix.com/GPX/1/1" xmlns:xsi="http://www.w3.org/2001/XMLSchema-instance" xsi:schemaLocation="http://www.topografix.com/GPX/1/1 http://www.topografix.com/GPX/1/1/gpx.xsd" version="1.1" creator="VisuGPX - https://www.visugpx.com">
  <metadata>
    <name>Aubais est (Pierre Plantée)</name>
    <desc><![CDATA[#ombre #court #enregistré]]></desc>
  </metadata>
  <trk>
    <name><![CDATA[2025-07-10 19:59]]></name>
    <extensions>
      <line xmlns="http://www.topografix.com/GPX/gpx_style/0/2">
        <color>0000FF</color>
        <opacity>0.59</opacity>
        <width>6.0</width>
      </line>
    </extensions>
    <trkseg>
      <trkpt lat="43.76257" lon="4.16059">
        <ele>89.59</ele>
        <time>2025-07-10T17:59:01.836Z</time>
      </trkpt>
      <trkpt lat="43.7625" lon="4.16068">
        <ele>88.3</ele>
        <time>2025-07-10T17:59:07.875Z</time>
      </trkpt>
      <trkpt lat="43.76248" lon="4.16077">
        <ele>88.61</ele>
        <time>2025-07-10T17:59:13.262Z</time>
      </trkpt>
      <trkpt lat="43.76246" lon="4.16086">
        <ele>89.19</ele>
        <time>2025-07-10T17:59:18.385Z</time>
      </trkpt>
      <trkpt lat="43.76242" lon="4.16096">
        <ele>89.18</ele>
        <time>2025-07-10T17:59:23.828Z</time>
      </trkpt>
      <trkpt lat="43.7624" lon="4.16106">
        <ele>89.35</ele>
        <time>2025-07-10T17:59:29.781Z</time>
      </trkpt>
      <trkpt lat="43.76238" lon="4.16115">
        <ele>89.52</ele>
        <time>2025-07-10T17:59:34.830Z</time>
      </trkpt>
      <trkpt lat="43.76232" lon="4.16125">
        <ele>90.19</ele>
        <time>2025-07-10T17:59:40.657Z</time>
      </trkpt>
      <trkpt lat="43.76225" lon="4.16127">
        <ele>88.85</ele>
        <time>2025-07-10T17:59:45.823Z</time>
      </trkpt>
      <trkpt lat="43.76219" lon="4.16123">
        <ele>89.21</ele>
        <time>2025-07-10T17:59:51.485Z</time>
      </trkpt>
      <trkpt lat="43.76212" lon="4.16118">
        <ele>88.65</ele>
        <time>2025-07-10T17:59:56.817Z</time>
      </trkpt>
      <trkpt lat="43.76204" lon="4.16113">
        <ele>88.2</ele>
        <time>2025-07-10T18:00:02.181Z</time>
      </trkpt>
      <trkpt lat="43.76197" lon="4.16109">
        <ele>87.35</ele>
        <time>2025-07-10T18:00:07.415Z</time>
      </trkpt>
      <trkpt lat="43.76189" lon="4.16106">
        <ele>86.54</ele>
        <time>2025-07-10T18:00:12.816Z</time>
      </trkpt>
      <trkpt lat="43.76181" lon="4.16103">
        <ele>86.04</ele>
        <time>2025-07-10T18:00:18.219Z</time>
      </trkpt>
      <trkpt lat="43.76174" lon="4.16102">
        <ele>85.94</ele>
        <time>2025-07-10T18:00:23.522Z</time>
      </trkpt>
      <trkpt lat="43.76168" lon="4.161">
        <ele>85.64</ele>
        <time>2025-07-10T18:00:28.833Z</time>
      </trkpt>
      <trkpt lat="43.76161" lon="4.16096">
        <ele>84.88</ele>
        <time>2025-07-10T18:00:33.850Z</time>
      </trkpt>
      <trkpt lat="43.76154" lon="4.16093">
        <ele>84.98</ele>
        <time>2025-07-10T18:00:38.866Z</time>
      </trkpt>
      <trkpt lat="43.76146" lon="4.16087">
        <ele>84.68</ele>
        <time>2025-07-10T18:00:44.440Z</time>
      </trkpt>
      <trkpt lat="43.76138" lon="4.16083">
        <ele>84.69</ele>
        <time>2025-07-10T18:00:49.815Z</time>
      </trkpt>
      <trkpt lat="43.7613" lon="4.1608">
        <ele>84.1</ele>
        <time>2025-07-10T18:00:55.101Z</time>
      </trkpt>
      <trkpt lat="43.76123" lon="4.16077">
        <ele>84.2</ele>
        <time>2025-07-10T18:01:00.382Z</time>
      </trkpt>
      <trkpt lat="43.76115" lon="4.16075">
        <ele>84.15</ele>
        <time>2025-07-10T18:01:05.781Z</time>
      </trkpt>
      <trkpt lat="43.76107" lon="4.16074">
        <ele>83.9</ele>
        <time>2025-07-10T18:01:11.118Z</time>
      </trkpt>
      <trkpt lat="43.761" lon="4.16071">
        <ele>83.93</ele>
        <time>2025-07-10T18:01:16.435Z</time>
      </trkpt>
      <trkpt lat="43.76093" lon="4.1607">
        <ele>83.93</ele>
        <time>2025-07-10T18:01:21.779Z</time>
      </trkpt>
      <trkpt lat="43.76085" lon="4.16068">
        <ele>83.84</ele>
        <time>2025-07-10T18:01:27.141Z</time>
      </trkpt>
      <trkpt lat="43.76078" lon="4.16065">
        <ele>83.84</ele>
        <time>2025-07-10T18:01:32.498Z</time>
      </trkpt>
      <trkpt lat="43.76071" lon="4.16059">
        <ele>83.8</ele>
        <time>2025-07-10T18:01:37.841Z</time>
      </trkpt>
      <trkpt lat="43.76064" lon="4.16054">
        <ele>83.3</ele>
        <time>2025-07-10T18:01:43.178Z</time>
      </trkpt>
      <trkpt lat="43.76057" lon="4.16051">
        <ele>83.31</ele>
        <time>2025-07-10T18:01:48.418Z</time>
      </trkpt>
      <trkpt lat="43.76051" lon="4.16045">
        <ele>83.22</ele>
        <time>2025-07-10T18:01:53.700Z</time>
      </trkpt>
      <trkpt lat="43.76044" lon="4.16038">
        <ele>82.79</ele>
        <time>2025-07-10T18:01:58.801Z</time>
      </trkpt>
      <trkpt lat="43.76034" lon="4.16032">
        <ele>83</ele>
        <time>2025-07-10T18:02:04.176Z</time>
      </trkpt>
      <trkpt lat="43.76027" lon="4.16028">
        <ele>83.33</ele>
        <time>2025-07-10T18:02:09.540Z</time>
      </trkpt>
      <trkpt lat="43.7602" lon="4.16025">
        <ele>83.34</ele>
        <time>2025-07-10T18:02:14.838Z</time>
      </trkpt>
      <trkpt lat="43.76012" lon="4.16027">
        <ele>83.2</ele>
        <time>2025-07-10T18:02:20.477Z</time>
      </trkpt>
      <trkpt lat="43.76005" lon="4.1603">
        <ele>82.84</ele>
        <time>2025-07-10T18:02:26.456Z</time>
      </trkpt>
      <trkpt lat="43.75999" lon="4.16032">
        <ele>83.06</ele>
        <time>2025-07-10T18:02:31.675Z</time>
      </trkpt>
      <trkpt lat="43.75992" lon="4.16033">
        <ele>82.92</ele>
        <time>2025-07-10T18:02:36.794Z</time>
      </trkpt>
      <trkpt lat="43.75984" lon="4.16031">
        <ele>82.78</ele>
        <time>2025-07-10T18:02:42.117Z</time>
      </trkpt>
      <trkpt lat="43.75976" lon="4.16027">
        <ele>82.97</ele>
        <time>2025-07-10T18:02:47.336Z</time>
      </trkpt>
      <trkpt lat="43.75967" lon="4.16026">
        <ele>83.02</ele>
        <time>2025-07-10T18:02:52.541Z</time>
      </trkpt>
      <trkpt lat="43.75958" lon="4.16025">
        <ele>83.09</ele>
        <time>2025-07-10T18:02:57.778Z</time>
      </trkpt>
      <trkpt lat="43.75949" lon="4.16025">
        <ele>82.66</ele>
        <time>2025-07-10T18:03:02.835Z</time>
      </trkpt>
      <trkpt lat="43.75941" lon="4.16024">
        <ele>82.89</ele>
        <time>2025-07-10T18:03:08.312Z</time>
      </trkpt>
      <trkpt lat="43.75934" lon="4.16022">
        <ele>82.38</ele>
        <time>2025-07-10T18:03:13.554Z</time>
      </trkpt>
      <trkpt lat="43.75925" lon="4.16023">
        <ele>82.21</ele>
        <time>2025-07-10T18:03:18.739Z</time>
      </trkpt>
      <trkpt lat="43.75917" lon="4.16023">
        <ele>82.07</ele>
        <time>2025-07-10T18:03:23.942Z</time>
      </trkpt>
      <trkpt lat="43.75909" lon="4.1602">
        <ele>81.6</ele>
        <time>2025-07-10T18:03:29.474Z</time>
      </trkpt>
      <trkpt lat="43.75901" lon="4.16019">
        <ele>81.68</ele>
        <time>2025-07-10T18:03:34.852Z</time>
      </trkpt>
      <trkpt lat="43.75894" lon="4.16019">
        <ele>81.27</ele>
        <time>2025-07-10T18:03:40.696Z</time>
      </trkpt>
      <trkpt lat="43.75885" lon="4.16021">
        <ele>81.19</ele>
        <time>2025-07-10T18:03:45.738Z</time>
      </trkpt>
      <trkpt lat="43.75877" lon="4.16022">
        <ele>80.56</ele>
        <time>2025-07-10T18:03:50.754Z</time>
      </trkpt>
      <trkpt lat="43.7587" lon="4.16022">
        <ele>80.42</ele>
        <time>2025-07-10T18:03:55.770Z</time>
      </trkpt>
      <trkpt lat="43.75862" lon="4.16023">
        <ele>80.2</ele>
        <time>2025-07-10T18:04:01.517Z</time>
      </trkpt>
      <trkpt lat="43.75855" lon="4.16022">
        <ele>79.77</ele>
        <time>2025-07-10T18:04:06.737Z</time>
      </trkpt>
      <trkpt lat="43.75849" lon="4.16016">
        <ele>79.83</ele>
        <time>2025-07-10T18:04:11.779Z</time>
      </trkpt>
      <trkpt lat="43.75843" lon="4.16009">
        <ele>79.72</ele>
        <time>2025-07-10T18:04:16.795Z</time>
      </trkpt>
      <trkpt lat="43.75834" lon="4.16006">
        <ele>79.17</ele>
        <time>2025-07-10T18:04:22.419Z</time>
      </trkpt>
      <trkpt lat="43.75825" lon="4.16006">
        <ele>79.46</ele>
        <time>2025-07-10T18:04:27.683Z</time>
      </trkpt>
      <trkpt lat="43.75815" lon="4.16006">
        <ele>79.12</ele>
        <time>2025-07-10T18:04:32.857Z</time>
      </trkpt>
      <trkpt lat="43.75807" lon="4.16009">
        <ele>78.78</ele>
        <time>2025-07-10T18:04:38.544Z</time>
      </trkpt>
      <trkpt lat="43.75799" lon="4.1601">
        <ele>78.8</ele>
        <time>2025-07-10T18:04:44.421Z</time>
      </trkpt>
      <trkpt lat="43.75793" lon="4.16014">
        <ele>78.39</ele>
        <time>2025-07-10T18:04:49.685Z</time>
      </trkpt>
      <trkpt lat="43.75784" lon="4.16017">
        <ele>78.51</ele>
        <time>2025-07-10T18:04:54.834Z</time>
      </trkpt>
      <trkpt lat="43.75775" lon="4.16018">
        <ele>77.92</ele>
        <time>2025-07-10T18:05:00.439Z</time>
      </trkpt>
      <trkpt lat="43.75766" lon="4.16018">
        <ele>78.05</ele>
        <time>2025-07-10T18:05:06.446Z</time>
      </trkpt>
      <trkpt lat="43.7576" lon="4.16022">
        <ele>77.76</ele>
        <time>2025-07-10T18:05:11.679Z</time>
      </trkpt>
      <trkpt lat="43.75752" lon="4.16025">
        <ele>77.74</ele>
        <time>2025-07-10T18:05:16.775Z</time>
      </trkpt>
      <trkpt lat="43.75744" lon="4.16026">
        <ele>77.74</ele>
        <time>2025-07-10T18:05:21.788Z</time>
      </trkpt>
      <trkpt lat="43.75738" lon="4.16026">
        <ele>77.48</ele>
        <time>2025-07-10T18:05:26.804Z</time>
      </trkpt>
      <trkpt lat="43.7573" lon="4.16026">
        <ele>77.71</ele>
        <time>2025-07-10T18:05:32.517Z</time>
      </trkpt>
      <trkpt lat="43.75724" lon="4.16028">
        <ele>77.4</ele>
        <time>2025-07-10T18:05:37.754Z</time>
      </trkpt>
      <trkpt lat="43.75716" lon="4.16033">
        <ele>77.17</ele>
        <time>2025-07-10T18:05:43.134Z</time>
      </trkpt>
      <trkpt lat="43.75709" lon="4.16035">
        <ele>77.14</ele>
        <time>2025-07-10T18:05:48.401Z</time>
      </trkpt>
      <trkpt lat="43.75702" lon="4.16038">
        <ele>77.36</ele>
        <time>2025-07-10T18:05:53.662Z</time>
      </trkpt>
      <trkpt lat="43.75692" lon="4.16041">
        <ele>77.27</ele>
        <time>2025-07-10T18:05:58.820Z</time>
      </trkpt>
      <trkpt lat="43.75686" lon="4.16049">
        <ele>76.9</ele>
        <time>2025-07-10T18:06:04.181Z</time>
      </trkpt>
      <trkpt lat="43.75684" lon="4.16058">
        <ele>76.29</ele>
        <time>2025-07-10T18:06:09.522Z</time>
      </trkpt>
      <trkpt lat="43.75683" lon="4.1607">
        <ele>76.2</ele>
        <time>2025-07-10T18:06:14.822Z</time>
      </trkpt>
      <trkpt lat="43.75683" lon="4.16079">
        <ele>76.04</ele>
        <time>2025-07-10T18:06:19.845Z</time>
      </trkpt>
      <trkpt lat="43.75682" lon="4.16091">
        <ele>75.91</ele>
        <time>2025-07-10T18:06:25.478Z</time>
      </trkpt>
      <trkpt lat="43.75681" lon="4.16102">
        <ele>75.89</ele>
        <time>2025-07-10T18:06:30.794Z</time>
      </trkpt>
      <trkpt lat="43.75681" lon="4.16114">
        <ele>75.15</ele>
        <time>2025-07-10T18:06:36.158Z</time>
      </trkpt>
      <trkpt lat="43.75678" lon="4.16124">
        <ele>74.69</ele>
        <time>2025-07-10T18:06:41.475Z</time>
      </trkpt>
      <trkpt lat="43.75677" lon="4.16135">
        <ele>74.55</ele>
        <time>2025-07-10T18:06:46.776Z</time>
      </trkpt>
      <trkpt lat="43.75678" lon="4.16147">
        <ele>73.8</ele>
        <time>2025-07-10T18:06:52.079Z</time>
      </trkpt>
      <trkpt lat="43.75678" lon="4.16157">
        <ele>73.15</ele>
        <time>2025-07-10T18:06:57.396Z</time>
      </trkpt>
      <trkpt lat="43.75678" lon="4.16167">
        <ele>72.29</ele>
        <time>2025-07-10T18:07:02.722Z</time>
      </trkpt>
      <trkpt lat="43.75678" lon="4.16178">
        <ele>72.38</ele>
        <time>2025-07-10T18:07:07.761Z</time>
      </trkpt>
      <trkpt lat="43.75676" lon="4.16187">
        <ele>71.77</ele>
        <time>2025-07-10T18:07:12.778Z</time>
      </trkpt>
      <trkpt lat="43.75671" lon="4.16198">
        <ele>71.41</ele>
        <time>2025-07-10T18:07:18.756Z</time>
      </trkpt>
      <trkpt lat="43.75669" lon="4.1621">
        <ele>70.85</ele>
        <time>2025-07-10T18:07:24.057Z</time>
      </trkpt>
      <trkpt lat="43.75666" lon="4.1622">
        <ele>70.93</ele>
        <time>2025-07-10T18:07:29.377Z</time>
      </trkpt>
      <trkpt lat="43.75663" lon="4.16227">
        <ele>70.58</ele>
        <time>2025-07-10T18:07:34.692Z</time>
      </trkpt>
      <trkpt lat="43.75661" lon="4.16238">
        <ele>70.06</ele>
        <time>2025-07-10T18:07:39.777Z</time>
      </trkpt>
      <trkpt lat="43.75659" lon="4.16249">
        <ele>69.48</ele>
        <time>2025-07-10T18:07:45.246Z</time>
      </trkpt>
      <trkpt lat="43.75657" lon="4.16258">
        <ele>69.79</ele>
        <time>2025-07-10T18:07:50.560Z</time>
      </trkpt>
      <trkpt lat="43.75655" lon="4.16269">
        <ele>69.5</ele>
        <time>2025-07-10T18:07:55.785Z</time>
      </trkpt>
      <trkpt lat="43.75652" lon="4.1628">
        <ele>68.99</ele>
        <time>2025-07-10T18:08:01.260Z</time>
      </trkpt>
      <trkpt lat="43.75649" lon="4.1629">
        <ele>68.79</ele>
        <time>2025-07-10T18:08:06.655Z</time>
      </trkpt>
      <trkpt lat="43.75648" lon="4.16301">
        <ele>67.95</ele>
        <time>2025-07-10T18:08:11.794Z</time>
      </trkpt>
      <trkpt lat="43.75647" lon="4.16311">
        <ele>67.79</ele>
        <time>2025-07-10T18:08:16.809Z</time>
      </trkpt>
      <trkpt lat="43.75644" lon="4.16322">
        <ele>67.86</ele>
        <time>2025-07-10T18:08:22.676Z</time>
      </trkpt>
      <trkpt lat="43.75643" lon="4.16332">
        <ele>67.39</ele>
        <time>2025-07-10T18:08:27.801Z</time>
      </trkpt>
      <trkpt lat="43.75642" lon="4.16342">
        <ele>66.82</ele>
        <time>2025-07-10T18:08:33.222Z</time>
      </trkpt>
      <trkpt lat="43.75641" lon="4.16348">
        <ele>67.54</ele>
        <time>2025-07-10T18:08:38.716Z</time>
      </trkpt>
      <trkpt lat="43.75641" lon="4.16358">
        <ele>66.81</ele>
        <time>2025-07-10T18:08:44.035Z</time>
      </trkpt>
      <trkpt lat="43.7564" lon="4.16369">
        <ele>66.91</ele>
        <time>2025-07-10T18:08:49.300Z</time>
      </trkpt>
      <trkpt lat="43.75643" lon="4.16379">
        <ele>66.63</ele>
        <time>2025-07-10T18:08:54.583Z</time>
      </trkpt>
      <trkpt lat="43.75644" lon="4.1639">
        <ele>66.78</ele>
        <time>2025-07-10T18:08:59.759Z</time>
      </trkpt>
      <trkpt lat="43.75643" lon="4.16401">
        <ele>66.39</ele>
        <time>2025-07-10T18:09:04.833Z</time>
      </trkpt>
      <trkpt lat="43.7564" lon="4.1641">
        <ele>66.53</ele>
        <time>2025-07-10T18:09:09.849Z</time>
      </trkpt>
      <trkpt lat="43.75637" lon="4.16419">
        <ele>67.21</ele>
        <time>2025-07-10T18:09:15.517Z</time>
      </trkpt>
      <trkpt lat="43.75635" lon="4.16429">
        <ele>68.41</ele>
        <time>2025-07-10T18:09:20.842Z</time>
      </trkpt>
      <trkpt lat="43.75632" lon="4.16438">
        <ele>67.77</ele>
        <time>2025-07-10T18:09:25.858Z</time>
      </trkpt>
      <trkpt lat="43.75628" lon="4.16442">
        <ele>68.13</ele>
        <time>2025-07-10T18:09:31.037Z</time>
      </trkpt>
      <trkpt lat="43.75623" lon="4.16448">
        <ele>68.36</ele>
        <time>2025-07-10T18:09:36.096Z</time>
      </trkpt>
      <trkpt lat="43.7562" lon="4.16455">
        <ele>68.42</ele>
        <time>2025-07-10T18:09:41.683Z</time>
      </trkpt>
      <trkpt lat="43.7562" lon="4.16465">
        <ele>68.93</ele>
        <time>2025-07-10T18:09:46.775Z</time>
      </trkpt>
      <trkpt lat="43.75615" lon="4.16472">
        <ele>70.63</ele>
        <time>2025-07-10T18:09:52.045Z</time>
      </trkpt>
      <trkpt lat="43.75609" lon="4.16479">
        <ele>71.67</ele>
        <time>2025-07-10T18:09:57.281Z</time>
      </trkpt>
      <trkpt lat="43.7561" lon="4.16489">
        <ele>71.95</ele>
        <time>2025-07-10T18:10:02.679Z</time>
      </trkpt>
      <trkpt lat="43.75612" lon="4.16499">
        <ele>71.95</ele>
        <time>2025-07-10T18:10:08.335Z</time>
      </trkpt>
      <trkpt lat="43.7561" lon="4.16507">
        <ele>73.18</ele>
        <time>2025-07-10T18:10:13.556Z</time>
      </trkpt>
      <trkpt lat="43.75603" lon="4.16511">
        <ele>74.35</ele>
        <time>2025-07-10T18:10:18.838Z</time>
      </trkpt>
      <trkpt lat="43.75597" lon="4.16516">
        <ele>75.77</ele>
        <time>2025-07-10T18:10:24.104Z</time>
      </trkpt>
      <trkpt lat="43.75591" lon="4.16519">
        <ele>76.16</ele>
        <time>2025-07-10T18:10:29.821Z</time>
      </trkpt>
      <trkpt lat="43.75586" lon="4.1652">
        <ele>75.64</ele>
        <time>2025-07-10T18:10:35.246Z</time>
      </trkpt>
      <trkpt lat="43.7558" lon="4.16522">
        <ele>76.13</ele>
        <time>2025-07-10T18:10:40.570Z</time>
      </trkpt>
      <trkpt lat="43.75572" lon="4.16527">
        <ele>76.09</ele>
        <time>2025-07-10T18:10:46.185Z</time>
      </trkpt>
      <trkpt lat="43.75565" lon="4.1653">
        <ele>77.07</ele>
        <time>2025-07-10T18:10:51.680Z</time>
      </trkpt>
      <trkpt lat="43.75559" lon="4.16526">
        <ele>75.75</ele>
        <time>2025-07-10T18:10:57.126Z</time>
      </trkpt>
      <trkpt lat="43.75551" lon="4.16524">
        <ele>75.62</ele>
        <time>2025-07-10T18:11:02.668Z</time>
      </trkpt>
      <trkpt lat="43.75545" lon="4.16524">
        <ele>76.35</ele>
        <time>2025-07-10T18:11:07.784Z</time>
      </trkpt>
      <trkpt lat="43.7554" lon="4.16524">
        <ele>76.26</ele>
        <time>2025-07-10T18:11:12.800Z</time>
      </trkpt>
      <trkpt lat="43.75534" lon="4.16523">
        <ele>76.11</ele>
        <time>2025-07-10T18:11:17.816Z</time>
      </trkpt>
      <trkpt lat="43.75527" lon="4.16525">
        <ele>76.2</ele>
        <time>2025-07-10T18:11:22.832Z</time>
      </trkpt>
      <trkpt lat="43.75521" lon="4.16533">
        <ele>76.48</ele>
        <time>2025-07-10T18:11:27.848Z</time>
      </trkpt>
      <trkpt lat="43.75513" lon="4.16539">
        <ele>76.5</ele>
        <time>2025-07-10T18:11:33.800Z</time>
      </trkpt>
      <trkpt lat="43.75508" lon="4.16543">
        <ele>76.25</ele>
        <time>2025-07-10T18:11:38.840Z</time>
      </trkpt>
      <trkpt lat="43.755" lon="4.16545">
        <ele>76.93</ele>
        <time>2025-07-10T18:11:43.840Z</time>
      </trkpt>
      <trkpt lat="43.75497" lon="4.16551">
        <ele>76.33</ele>
        <time>2025-07-10T18:11:48.871Z</time>
      </trkpt>
      <trkpt lat="43.75492" lon="4.16557">
        <ele>76.88</ele>
        <time>2025-07-10T18:11:53.887Z</time>
      </trkpt>
      <trkpt lat="43.75485" lon="4.16558">
        <ele>76.75</ele>
        <time>2025-07-10T18:11:59.038Z</time>
      </trkpt>
      <trkpt lat="43.75479" lon="4.16564">
        <ele>76.08</ele>
        <time>2025-07-10T18:12:04.421Z</time>
      </trkpt>
      <trkpt lat="43.75472" lon="4.16563">
        <ele>75.97</ele>
        <time>2025-07-10T18:12:09.798Z</time>
      </trkpt>
      <trkpt lat="43.75466" lon="4.16565">
        <ele>76.32</ele>
        <time>2025-07-10T18:12:15.151Z</time>
      </trkpt>
      <trkpt lat="43.75459" lon="4.1657">
        <ele>77.11</ele>
        <time>2025-07-10T18:12:20.579Z</time>
      </trkpt>
      <trkpt lat="43.75452" lon="4.1657">
        <ele>76.56</ele>
        <time>2025-07-10T18:12:25.797Z</time>
      </trkpt>
      <trkpt lat="43.75445" lon="4.16567">
        <ele>76.66</ele>
        <time>2025-07-10T18:12:30.812Z</time>
      </trkpt>
      <trkpt lat="43.75438" lon="4.16568">
        <ele>77.35</ele>
        <time>2025-07-10T18:12:36.800Z</time>
      </trkpt>
      <trkpt lat="43.75433" lon="4.16575">
        <ele>76.93</ele>
        <time>2025-07-10T18:12:41.804Z</time>
      </trkpt>
      <trkpt lat="43.75431" lon="4.16587">
        <ele>76.54</ele>
        <time>2025-07-10T18:12:47.562Z</time>
      </trkpt>
      <trkpt lat="43.75428" lon="4.16595">
        <ele>76.77</ele>
        <time>2025-07-10T18:12:52.861Z</time>
      </trkpt>
      <trkpt lat="43.75424" lon="4.16605">
        <ele>76.73</ele>
        <time>2025-07-10T18:12:58.323Z</time>
      </trkpt>
      <trkpt lat="43.75422" lon="4.16613">
        <ele>76.71</ele>
        <time>2025-07-10T18:13:03.544Z</time>
      </trkpt>
      <trkpt lat="43.75423" lon="4.1662">
        <ele>75.57</ele>
        <time>2025-07-10T18:13:08.804Z</time>
      </trkpt>
      <trkpt lat="43.75425" lon="4.16633">
        <ele>74.46</ele>
        <time>2025-07-10T18:13:14.487Z</time>
      </trkpt>
      <trkpt lat="43.75427" lon="4.16647">
        <ele>73.46</ele>
        <time>2025-07-10T18:13:19.721Z</time>
      </trkpt>
      <trkpt lat="43.75425" lon="4.1666">
        <ele>72.2</ele>
        <time>2025-07-10T18:13:25.341Z</time>
      </trkpt>
      <trkpt lat="43.75419" lon="4.16668">
        <ele>72.01</ele>
        <time>2025-07-10T18:13:30.544Z</time>
      </trkpt>
      <trkpt lat="43.75414" lon="4.16679">
        <ele>71.18</ele>
        <time>2025-07-10T18:13:35.762Z</time>
      </trkpt>
      <trkpt lat="43.75411" lon="4.16691">
        <ele>70.61</ele>
        <time>2025-07-10T18:13:40.824Z</time>
      </trkpt>
      <trkpt lat="43.7541" lon="4.16704">
        <ele>69.34</ele>
        <time>2025-07-10T18:13:45.837Z</time>
      </trkpt>
      <trkpt lat="43.75405" lon="4.16713">
        <ele>68.12</ele>
        <time>2025-07-10T18:13:51.141Z</time>
      </trkpt>
      <trkpt lat="43.75399" lon="4.1672">
        <ele>67.3</ele>
        <time>2025-07-10T18:13:56.184Z</time>
      </trkpt>
      <trkpt lat="43.75396" lon="4.1673">
        <ele>66.6</ele>
        <time>2025-07-10T18:14:01.403Z</time>
      </trkpt>
      <trkpt lat="43.75396" lon="4.1674">
        <ele>66.64</ele>
        <time>2025-07-10T18:14:06.668Z</time>
      </trkpt>
      <trkpt lat="43.75397" lon="4.16753">
        <ele>65.93</ele>
        <time>2025-07-10T18:14:11.825Z</time>
      </trkpt>
      <trkpt lat="43.75401" lon="4.16764">
        <ele>66.11</ele>
        <time>2025-07-10T18:14:17.260Z</time>
      </trkpt>
      <trkpt lat="43.75406" lon="4.16773">
        <ele>65.81</ele>
        <time>2025-07-10T18:14:22.867Z</time>
      </trkpt>
      <trkpt lat="43.75411" lon="4.1678">
        <ele>66.11</ele>
        <time>2025-07-10T18:14:28.280Z</time>
      </trkpt>
      <trkpt lat="43.75416" lon="4.16787">
        <ele>65.7</ele>
        <time>2025-07-10T18:14:33.406Z</time>
      </trkpt>
      <trkpt lat="43.75422" lon="4.16794">
        <ele>66.17</ele>
        <time>2025-07-10T18:14:38.525Z</time>
      </trkpt>
      <trkpt lat="43.75431" lon="4.16803">
        <ele>65.87</ele>
        <time>2025-07-10T18:14:43.779Z</time>
      </trkpt>
      <trkpt lat="43.7544" lon="4.1681">
        <ele>66.72</ele>
        <time>2025-07-10T18:14:49.481Z</time>
      </trkpt>
      <trkpt lat="43.75448" lon="4.16815">
        <ele>67.38</ele>
        <time>2025-07-10T18:14:54.672Z</time>
      </trkpt>
      <trkpt lat="43.75456" lon="4.16818">
        <ele>67.33</ele>
        <time>2025-07-10T18:14:59.820Z</time>
      </trkpt>
      <trkpt lat="43.75463" lon="4.1682">
        <ele>66.68</ele>
        <time>2025-07-10T18:15:05.026Z</time>
      </trkpt>
      <trkpt lat="43.75469" lon="4.16824">
        <ele>67.32</ele>
        <time>2025-07-10T18:15:10.177Z</time>
      </trkpt>
      <trkpt lat="43.75475" lon="4.1683">
        <ele>67.69</ele>
        <time>2025-07-10T18:15:15.342Z</time>
      </trkpt>
      <trkpt lat="43.75481" lon="4.16836">
        <ele>68.5</ele>
        <time>2025-07-10T18:15:20.578Z</time>
      </trkpt>
      <trkpt lat="43.75486" lon="4.16844">
        <ele>68.56</ele>
        <time>2025-07-10T18:15:25.879Z</time>
      </trkpt>
      <trkpt lat="43.75487" lon="4.16854">
        <ele>68.33</ele>
        <time>2025-07-10T18:15:31.260Z</time>
      </trkpt>
      <trkpt lat="43.75479" lon="4.16854">
        <ele>69.04</ele>
        <time>2025-07-10T18:15:36.702Z</time>
      </trkpt>
      <trkpt lat="43.75471" lon="4.16853">
        <ele>69.07</ele>
        <time>2025-07-10T18:15:42.243Z</time>
      </trkpt>
      <trkpt lat="43.75465" lon="4.16853">
        <ele>69.9</ele>
        <time>2025-07-10T18:15:47.283Z</time>
      </trkpt>
      <trkpt lat="43.75456" lon="4.16854">
        <ele>70.11</ele>
        <time>2025-07-10T18:15:52.832Z</time>
      </trkpt>
      <trkpt lat="43.75449" lon="4.16852">
        <ele>70.22</ele>
        <time>2025-07-10T18:15:57.847Z</time>
      </trkpt>
      <trkpt lat="43.7544" lon="4.16853">
        <ele>70.37</ele>
        <time>2025-07-10T18:16:03.763Z</time>
      </trkpt>
      <trkpt lat="43.75431" lon="4.16856">
        <ele>70.21</ele>
        <time>2025-07-10T18:16:08.840Z</time>
      </trkpt>
      <trkpt lat="43.75423" lon="4.16859">
        <ele>70.07</ele>
        <time>2025-07-10T18:16:14.204Z</time>
      </trkpt>
      <trkpt lat="43.75416" lon="4.16863">
        <ele>70.09</ele>
        <time>2025-07-10T18:16:19.480Z</time>
      </trkpt>
      <trkpt lat="43.75409" lon="4.16867">
        <ele>70.87</ele>
        <time>2025-07-10T18:16:24.726Z</time>
      </trkpt>
      <trkpt lat="43.75402" lon="4.16872">
        <ele>70.68</ele>
        <time>2025-07-10T18:16:29.863Z</time>
      </trkpt>
      <trkpt lat="43.75396" lon="4.16875">
        <ele>70.76</ele>
        <time>2025-07-10T18:16:34.878Z</time>
      </trkpt>
      <trkpt lat="43.7539" lon="4.16878">
        <ele>70.75</ele>
        <time>2025-07-10T18:16:39.904Z</time>
      </trkpt>
      <trkpt lat="43.75382" lon="4.16884">
        <ele>71.37</ele>
        <time>2025-07-10T18:16:45.741Z</time>
      </trkpt>
      <trkpt lat="43.75374" lon="4.16891">
        <ele>71.28</ele>
        <time>2025-07-10T18:16:51.059Z</time>
      </trkpt>
      <trkpt lat="43.75367" lon="4.16897">
        <ele>71.11</ele>
        <time>2025-07-10T18:16:56.342Z</time>
      </trkpt>
      <trkpt lat="43.75362" lon="4.16902">
        <ele>71.13</ele>
        <time>2025-07-10T18:17:01.545Z</time>
      </trkpt>
      <trkpt lat="43.75356" lon="4.16911">
        <ele>71.46</ele>
        <time>2025-07-10T18:17:06.826Z</time>
      </trkpt>
      <trkpt lat="43.75351" lon="4.16919">
        <ele>71.48</ele>
        <time>2025-07-10T18:17:12.082Z</time>
      </trkpt>
      <trkpt lat="43.75346" lon="4.16926">
        <ele>72.03</ele>
        <time>2025-07-10T18:17:17.382Z</time>
      </trkpt>
      <trkpt lat="43.75341" lon="4.16932">
        <ele>71.85</ele>
        <time>2025-07-10T18:17:22.681Z</time>
      </trkpt>
      <trkpt lat="43.75335" lon="4.16942">
        <ele>71.79</ele>
        <time>2025-07-10T18:17:28.018Z</time>
      </trkpt>
      <trkpt lat="43.75338" lon="4.16954">
        <ele>71.88</ele>
        <time>2025-07-10T18:17:33.364Z</time>
      </trkpt>
      <trkpt lat="43.75341" lon="4.16964">
        <ele>71.59</ele>
        <time>2025-07-10T18:17:38.666Z</time>
      </trkpt>
      <trkpt lat="43.75345" lon="4.16971">
        <ele>71.39</ele>
        <time>2025-07-10T18:17:43.818Z</time>
      </trkpt>
      <trkpt lat="43.7535" lon="4.16976">
        <ele>70.83</ele>
        <time>2025-07-10T18:17:49.363Z</time>
      </trkpt>
      <trkpt lat="43.75353" lon="4.16983">
        <ele>70.47</ele>
        <time>2025-07-10T18:17:54.743Z</time>
      </trkpt>
      <trkpt lat="43.75356" lon="4.16992">
        <ele>70.36</ele>
        <time>2025-07-10T18:17:59.826Z</time>
      </trkpt>
      <trkpt lat="43.75363" lon="4.16997">
        <ele>70.43</ele>
        <time>2025-07-10T18:18:05.301Z</time>
      </trkpt>
      <trkpt lat="43.7537" lon="4.17003">
        <ele>70.17</ele>
        <time>2025-07-10T18:18:10.674Z</time>
      </trkpt>
      <trkpt lat="43.75377" lon="4.17008">
        <ele>70.18</ele>
        <time>2025-07-10T18:18:15.833Z</time>
      </trkpt>
      <trkpt lat="43.75385" lon="4.17011">
        <ele>69.57</ele>
        <time>2025-07-10T18:18:21.263Z</time>
      </trkpt>
      <trkpt lat="43.75393" lon="4.17011">
        <ele>69.14</ele>
        <time>2025-07-10T18:18:26.665Z</time>
      </trkpt>
      <trkpt lat="43.75401" lon="4.17008">
        <ele>69.29</ele>
        <time>2025-07-10T18:18:31.845Z</time>
      </trkpt>
      <trkpt lat="43.75407" lon="4.17002">
        <ele>69.96</ele>
        <time>2025-07-10T18:18:36.858Z</time>
      </trkpt>
      <trkpt lat="43.75414" lon="4.16996">
        <ele>70.48</ele>
        <time>2025-07-10T18:18:42.526Z</time>
      </trkpt>
      <trkpt lat="43.75419" lon="4.16989">
        <ele>70.45</ele>
        <time>2025-07-10T18:18:47.849Z</time>
      </trkpt>
      <trkpt lat="43.75424" lon="4.16983">
        <ele>70.71</ele>
        <time>2025-07-10T18:18:53.321Z</time>
      </trkpt>
      <trkpt lat="43.75429" lon="4.16988">
        <ele>70.63</ele>
        <time>2025-07-10T18:18:58.414Z</time>
      </trkpt>
      <trkpt lat="43.75436" lon="4.16995">
        <ele>69.46</ele>
        <time>2025-07-10T18:19:03.857Z</time>
      </trkpt>
      <trkpt lat="43.75441" lon="4.17">
        <ele>71.03</ele>
        <time>2025-07-10T18:19:09.161Z</time>
      </trkpt>
      <trkpt lat="43.75446" lon="4.17007">
        <ele>70.28</ele>
        <time>2025-07-10T18:19:14.558Z</time>
      </trkpt>
      <trkpt lat="43.75447" lon="4.17015">
        <ele>69.8</ele>
        <time>2025-07-10T18:19:19.698Z</time>
      </trkpt>
      <trkpt lat="43.75448" lon="4.17025">
        <ele>69.03</ele>
        <time>2025-07-10T18:19:24.774Z</time>
      </trkpt>
      <trkpt lat="43.7545" lon="4.17034">
        <ele>68.24</ele>
        <time>2025-07-10T18:19:30.778Z</time>
      </trkpt>
      <trkpt lat="43.75451" lon="4.17041">
        <ele>66.99</ele>
        <time>2025-07-10T18:19:35.871Z</time>
      </trkpt>
      <trkpt lat="43.75452" lon="4.17052">
        <ele>66.88</ele>
        <time>2025-07-10T18:19:41.684Z</time>
      </trkpt>
      <trkpt lat="43.75455" lon="4.1706">
        <ele>67.08</ele>
        <time>2025-07-10T18:19:46.864Z</time>
      </trkpt>
      <trkpt lat="43.75463" lon="4.17062">
        <ele>67.06</ele>
        <time>2025-07-10T18:19:52.701Z</time>
      </trkpt>
      <trkpt lat="43.75469" lon="4.17064">
        <ele>67.6</ele>
        <time>2025-07-10T18:19:57.807Z</time>
      </trkpt>
      <trkpt lat="43.75477" lon="4.17069">
        <ele>67.08</ele>
        <time>2025-07-10T18:20:03.304Z</time>
      </trkpt>
      <trkpt lat="43.75484" lon="4.17073">
        <ele>67.29</ele>
        <time>2025-07-10T18:20:08.726Z</time>
      </trkpt>
      <trkpt lat="43.75487" lon="4.17068">
        <ele>68.56</ele>
        <time>2025-07-10T18:20:13.757Z</time>
      </trkpt>
      <trkpt lat="43.75494" lon="4.17069">
        <ele>66.42</ele>
        <time>2025-07-10T18:20:18.773Z</time>
      </trkpt>
      <trkpt lat="43.75503" lon="4.17069">
        <ele>67.1</ele>
        <time>2025-07-10T18:20:24.856Z</time>
      </trkpt>
      <trkpt lat="43.75512" lon="4.17063">
        <ele>65.02</ele>
        <time>2025-07-10T18:20:30.380Z</time>
      </trkpt>
      <trkpt lat="43.75512" lon="4.17052">
        <ele>71.26</ele>
        <time>2025-07-10T18:20:35.848Z</time>
      </trkpt>
      <trkpt lat="43.75519" lon="4.17044">
        <ele>69.76</ele>
        <time>2025-07-10T18:20:41.542Z</time>
      </trkpt>
      <trkpt lat="43.75523" lon="4.1705">
        <ele>70.56</ele>
        <time>2025-07-10T18:20:46.839Z</time>
      </trkpt>
      <trkpt lat="43.75525" lon="4.1706">
        <ele>70.1</ele>
        <time>2025-07-10T18:20:51.856Z</time>
      </trkpt>
      <trkpt lat="43.75524" lon="4.1707">
        <ele>69.42</ele>
        <time>2025-07-10T18:20:57.825Z</time>
      </trkpt>
      <trkpt lat="43.75521" lon="4.17079">
        <ele>68.5</ele>
        <time>2025-07-10T18:21:03.261Z</time>
      </trkpt>
      <trkpt lat="43.75519" lon="4.17086">
        <ele>68.05</ele>
        <time>2025-07-10T18:21:08.720Z</time>
      </trkpt>
      <trkpt lat="43.75522" lon="4.17096">
        <ele>67.11</ele>
        <time>2025-07-10T18:21:13.848Z</time>
      </trkpt>
      <trkpt lat="43.75526" lon="4.17103">
        <ele>66.68</ele>
        <time>2025-07-10T18:21:19.291Z</time>
      </trkpt>
      <trkpt lat="43.7553" lon="4.17112">
        <ele>66.24</ele>
        <time>2025-07-10T18:21:24.414Z</time>
      </trkpt>
      <trkpt lat="43.75528" lon="4.17123">
        <ele>65.7</ele>
        <time>2025-07-10T18:21:29.855Z</time>
      </trkpt>
      <trkpt lat="43.75532" lon="4.1713">
        <ele>65.77</ele>
        <time>2025-07-10T18:21:34.928Z</time>
      </trkpt>
      <trkpt lat="43.75537" lon="4.17136">
        <ele>65.9</ele>
        <time>2025-07-10T18:21:39.935Z</time>
      </trkpt>
      <trkpt lat="43.75543" lon="4.17146">
        <ele>65.31</ele>
        <time>2025-07-10T18:21:45.486Z</time>
      </trkpt>
      <trkpt lat="43.7555" lon="4.17151">
        <ele>65.54</ele>
        <time>2025-07-10T18:21:50.554Z</time>
      </trkpt>
      <trkpt lat="43.75555" lon="4.17158">
        <ele>65.78</ele>
        <time>2025-07-10T18:21:55.807Z</time>
      </trkpt>
      <trkpt lat="43.75561" lon="4.17167">
        <ele>65.87</ele>
        <time>2025-07-10T18:22:00.821Z</time>
      </trkpt>
      <trkpt lat="43.7556" lon="4.17178">
        <ele>66.13</ele>
        <time>2025-07-10T18:22:06.692Z</time>
      </trkpt>
      <trkpt lat="43.75559" lon="4.17187">
        <ele>65.4</ele>
        <time>2025-07-10T18:22:11.813Z</time>
      </trkpt>
      <trkpt lat="43.75565" lon="4.17191">
        <ele>65.69</ele>
        <time>2025-07-10T18:22:16.829Z</time>
      </trkpt>
      <trkpt lat="43.75573" lon="4.17192">
        <ele>66.13</ele>
        <time>2025-07-10T18:22:21.845Z</time>
      </trkpt>
      <trkpt lat="43.75579" lon="4.17197">
        <ele>66.48</ele>
        <time>2025-07-10T18:22:27.288Z</time>
      </trkpt>
      <trkpt lat="43.75585" lon="4.17194">
        <ele>66.72</ele>
        <time>2025-07-10T18:22:32.351Z</time>
      </trkpt>
      <trkpt lat="43.75587" lon="4.17184">
        <ele>67.19</ele>
        <time>2025-07-10T18:22:37.429Z</time>
      </trkpt>
      <trkpt lat="43.75595" lon="4.17182">
        <ele>68.46</ele>
        <time>2025-07-10T18:22:42.868Z</time>
      </trkpt>
      <trkpt lat="43.756" lon="4.17181">
        <ele>68.84</ele>
        <time>2025-07-10T18:22:47.884Z</time>
      </trkpt>
      <trkpt lat="43.75602" lon="4.17187">
        <ele>68.98</ele>
        <time>2025-07-10T18:22:52.899Z</time>
      </trkpt>
      <trkpt lat="43.75605" lon="4.17192">
        <ele>68.38</ele>
        <time>2025-07-10T18:22:58.392Z</time>
      </trkpt>
      <trkpt lat="43.75611" lon="4.17196">
        <ele>68.32</ele>
        <time>2025-07-10T18:23:03.514Z</time>
      </trkpt>
      <trkpt lat="43.75613" lon="4.17205">
        <ele>68.32</ele>
        <time>2025-07-10T18:23:08.908Z</time>
      </trkpt>
      <trkpt lat="43.75618" lon="4.17212">
        <ele>68.75</ele>
        <time>2025-07-10T18:23:14.132Z</time>
      </trkpt>
      <trkpt lat="43.7562" lon="4.17221">
        <ele>69.75</ele>
        <time>2025-07-10T18:23:19.521Z</time>
      </trkpt>
      <trkpt lat="43.75624" lon="4.17229">
        <ele>70.99</ele>
        <time>2025-07-10T18:23:24.705Z</time>
      </trkpt>
      <trkpt lat="43.75626" lon="4.17237">
        <ele>72.08</ele>
        <time>2025-07-10T18:23:30.422Z</time>
      </trkpt>
      <trkpt lat="43.75632" lon="4.17238">
        <ele>71.12</ele>
        <time>2025-07-10T18:23:36.150Z</time>
      </trkpt>
      <trkpt lat="43.75638" lon="4.17239">
        <ele>71.43</ele>
        <time>2025-07-10T18:23:41.841Z</time>
      </trkpt>
      <trkpt lat="43.75645" lon="4.17238">
        <ele>71.95</ele>
        <time>2025-07-10T18:23:47.320Z</time>
      </trkpt>
      <trkpt lat="43.75651" lon="4.17236">
        <ele>71.81</ele>
        <time>2025-07-10T18:23:52.447Z</time>
      </trkpt>
      <trkpt lat="43.75658" lon="4.17234">
        <ele>72.45</ele>
        <time>2025-07-10T18:23:57.502Z</time>
      </trkpt>
      <trkpt lat="43.75664" lon="4.17237">
        <ele>72.04</ele>
        <time>2025-07-10T18:24:02.981Z</time>
      </trkpt>
      <trkpt lat="43.75667" lon="4.17245">
        <ele>72.88</ele>
        <time>2025-07-10T18:24:08.682Z</time>
      </trkpt>
      <trkpt lat="43.7567" lon="4.17253">
        <ele>72.94</ele>
        <time>2025-07-10T18:24:13.792Z</time>
      </trkpt>
      <trkpt lat="43.75672" lon="4.17264">
        <ele>73.65</ele>
        <time>2025-07-10T18:24:19.662Z</time>
      </trkpt>
      <trkpt lat="43.75675" lon="4.17273">
        <ele>73.63</ele>
        <time>2025-07-10T18:24:25.161Z</time>
      </trkpt>
      <trkpt lat="43.75677" lon="4.17282">
        <ele>73.96</ele>
        <time>2025-07-10T18:24:30.670Z</time>
      </trkpt>
      <trkpt lat="43.75679" lon="4.17289">
        <ele>74.02</ele>
        <time>2025-07-10T18:24:35.706Z</time>
      </trkpt>
      <trkpt lat="43.75678" lon="4.17297">
        <ele>74.41</ele>
        <time>2025-07-10T18:24:40.883Z</time>
      </trkpt>
      <trkpt lat="43.75673" lon="4.17307">
        <ele>75.06</ele>
        <time>2025-07-10T18:24:46.503Z</time>
      </trkpt>
      <trkpt lat="43.7567" lon="4.17316">
        <ele>74.73</ele>
        <time>2025-07-10T18:24:51.889Z</time>
      </trkpt>
      <trkpt lat="43.75666" lon="4.17325">
        <ele>74.97</ele>
        <time>2025-07-10T18:24:56.926Z</time>
      </trkpt>
      <trkpt lat="43.75666" lon="4.17337">
        <ele>75.4</ele>
        <time>2025-07-10T18:25:02.324Z</time>
      </trkpt>
      <trkpt lat="43.75667" lon="4.17346">
        <ele>75.23</ele>
        <time>2025-07-10T18:25:07.446Z</time>
      </trkpt>
      <trkpt lat="43.75671" lon="4.17357">
        <ele>75.52</ele>
        <time>2025-07-10T18:25:12.806Z</time>
      </trkpt>
      <trkpt lat="43.75674" lon="4.17367">
        <ele>75.17</ele>
        <time>2025-07-10T18:25:17.821Z</time>
      </trkpt>
      <trkpt lat="43.75675" lon="4.17376">
        <ele>75.26</ele>
        <time>2025-07-10T18:25:23.689Z</time>
      </trkpt>
      <trkpt lat="43.75674" lon="4.17387">
        <ele>74.97</ele>
        <time>2025-07-10T18:25:29.163Z</time>
      </trkpt>
      <trkpt lat="43.75677" lon="4.17398">
        <ele>74.65</ele>
        <time>2025-07-10T18:25:34.675Z</time>
      </trkpt>
      <trkpt lat="43.75681" lon="4.17406">
        <ele>74.64</ele>
        <time>2025-07-10T18:25:39.804Z</time>
      </trkpt>
      <trkpt lat="43.75683" lon="4.17416">
        <ele>74.57</ele>
        <time>2025-07-10T18:25:45.545Z</time>
      </trkpt>
      <trkpt lat="43.75683" lon="4.17427">
        <ele>73.98</ele>
        <time>2025-07-10T18:25:50.797Z</time>
      </trkpt>
      <trkpt lat="43.75684" lon="4.17437">
        <ele>73.56</ele>
        <time>2025-07-10T18:25:56.482Z</time>
      </trkpt>
      <trkpt lat="43.75688" lon="4.17446">
        <ele>73.08</ele>
        <time>2025-07-10T18:26:01.869Z</time>
      </trkpt>
      <trkpt lat="43.75692" lon="4.17455">
        <ele>72.7</ele>
        <time>2025-07-10T18:26:07.324Z</time>
      </trkpt>
      <trkpt lat="43.75696" lon="4.17464">
        <ele>72.49</ele>
        <time>2025-07-10T18:26:12.785Z</time>
      </trkpt>
      <trkpt lat="43.75697" lon="4.17472">
        <ele>71.77</ele>
        <time>2025-07-10T18:26:17.903Z</time>
      </trkpt>
      <trkpt lat="43.75694" lon="4.17482">
        <ele>71.74</ele>
        <time>2025-07-10T18:26:23.588Z</time>
      </trkpt>
      <trkpt lat="43.75693" lon="4.17494">
        <ele>71.48</ele>
        <time>2025-07-10T18:26:28.894Z</time>
      </trkpt>
      <trkpt lat="43.75697" lon="4.17506">
        <ele>70.66</ele>
        <time>2025-07-10T18:26:34.323Z</time>
      </trkpt>
      <trkpt lat="43.75705" lon="4.1751">
        <ele>71.29</ele>
        <time>2025-07-10T18:26:39.687Z</time>
      </trkpt>
      <trkpt lat="43.75713" lon="4.17514">
        <ele>71.61</ele>
        <time>2025-07-10T18:26:44.794Z</time>
      </trkpt>
      <trkpt lat="43.7572" lon="4.17521">
        <ele>71.55</ele>
        <time>2025-07-10T18:26:50.463Z</time>
      </trkpt>
      <trkpt lat="43.75725" lon="4.17528">
        <ele>71.2</ele>
        <time>2025-07-10T18:26:55.905Z</time>
      </trkpt>
      <trkpt lat="43.75726" lon="4.17538">
        <ele>70.57</ele>
        <time>2025-07-10T18:27:01.349Z</time>
      </trkpt>
      <trkpt lat="43.75725" lon="4.17549">
        <ele>69.81</ele>
        <time>2025-07-10T18:27:06.676Z</time>
      </trkpt>
      <trkpt lat="43.75726" lon="4.17558">
        <ele>69.69</ele>
        <time>2025-07-10T18:27:12.047Z</time>
      </trkpt>
      <trkpt lat="43.75729" lon="4.17567">
        <ele>68.66</ele>
        <time>2025-07-10T18:27:17.461Z</time>
      </trkpt>
      <trkpt lat="43.75732" lon="4.17577">
        <ele>68.15</ele>
        <time>2025-07-10T18:27:22.885Z</time>
      </trkpt>
      <trkpt lat="43.75739" lon="4.17583">
        <ele>67.06</ele>
        <time>2025-07-10T18:27:28.303Z</time>
      </trkpt>
      <trkpt lat="43.75742" lon="4.17594">
        <ele>66.92</ele>
        <time>2025-07-10T18:27:33.780Z</time>
      </trkpt>
      <trkpt lat="43.75748" lon="4.17605">
        <ele>66.48</ele>
        <time>2025-07-10T18:27:39.223Z</time>
      </trkpt>
      <trkpt lat="43.75753" lon="4.17614">
        <ele>65.75</ele>
        <time>2025-07-10T18:27:44.745Z</time>
      </trkpt>
      <trkpt lat="43.75754" lon="4.17625">
        <ele>64.73</ele>
        <time>2025-07-10T18:27:50.161Z</time>
      </trkpt>
      <trkpt lat="43.75756" lon="4.17635">
        <ele>64.05</ele>
        <time>2025-07-10T18:27:55.541Z</time>
      </trkpt>
      <trkpt lat="43.75754" lon="4.17644">
        <ele>63.67</ele>
        <time>2025-07-10T18:28:00.882Z</time>
      </trkpt>
      <trkpt lat="43.75756" lon="4.17654">
        <ele>62.9</ele>
        <time>2025-07-10T18:28:06.302Z</time>
      </trkpt>
      <trkpt lat="43.7576" lon="4.17661">
        <ele>62.76</ele>
        <time>2025-07-10T18:28:11.779Z</time>
      </trkpt>
      <trkpt lat="43.75761" lon="4.17668">
        <ele>61.6</ele>
        <time>2025-07-10T18:28:16.889Z</time>
      </trkpt>
      <trkpt lat="43.75757" lon="4.17676">
        <ele>61.41</ele>
        <time>2025-07-10T18:28:22.584Z</time>
      </trkpt>
      <trkpt lat="43.75757" lon="4.17686">
        <ele>60.25</ele>
        <time>2025-07-10T18:28:27.884Z</time>
      </trkpt>
      <trkpt lat="43.75763" lon="4.17694">
        <ele>58.86</ele>
        <time>2025-07-10T18:28:33.221Z</time>
      </trkpt>
      <trkpt lat="43.75765" lon="4.17705">
        <ele>59.03</ele>
        <time>2025-07-10T18:28:38.582Z</time>
      </trkpt>
      <trkpt lat="43.75771" lon="4.17708">
        <ele>57.69</ele>
        <time>2025-07-10T18:28:43.781Z</time>
      </trkpt>
      <trkpt lat="43.75773" lon="4.17706">
        <ele>58.6</ele>
        <time>2025-07-10T18:28:48.797Z</time>
      </trkpt>
      <trkpt lat="43.75779" lon="4.17702">
        <ele>58.79</ele>
        <time>2025-07-10T18:28:54.386Z</time>
      </trkpt>
      <trkpt lat="43.75785" lon="4.17698">
        <ele>59.5</ele>
        <time>2025-07-10T18:29:00.004Z</time>
      </trkpt>
      <trkpt lat="43.75792" lon="4.17696">
        <ele>59.15</ele>
        <time>2025-07-10T18:29:05.423Z</time>
      </trkpt>
      <trkpt lat="43.75798" lon="4.17695">
        <ele>59.69</ele>
        <time>2025-07-10T18:29:10.846Z</time>
      </trkpt>
      <trkpt lat="43.75803" lon="4.17701">
        <ele>58.03</ele>
        <time>2025-07-10T18:29:16.263Z</time>
      </trkpt>
      <trkpt lat="43.75809" lon="4.17704">
        <ele>57.27</ele>
        <time>2025-07-10T18:29:21.682Z</time>
      </trkpt>
      <trkpt lat="43.75813" lon="4.17714">
        <ele>56.75</ele>
        <time>2025-07-10T18:29:26.705Z</time>
      </trkpt>
      <trkpt lat="43.75813" lon="4.17729">
        <ele>55.67</ele>
        <time>2025-07-10T18:29:31.858Z</time>
      </trkpt>
      <trkpt lat="43.75805" lon="4.17735">
        <ele>55.03</ele>
        <time>2025-07-10T18:29:37.285Z</time>
      </trkpt>
      <trkpt lat="43.75797" lon="4.17738">
        <ele>54.78</ele>
        <time>2025-07-10T18:29:42.583Z</time>
      </trkpt>
      <trkpt lat="43.75792" lon="4.17743">
        <ele>56.72</ele>
        <time>2025-07-10T18:29:47.841Z</time>
      </trkpt>
      <trkpt lat="43.75785" lon="4.17751">
        <ele>53.1</ele>
        <time>2025-07-10T18:29:53.787Z</time>
      </trkpt>
      <trkpt lat="43.75778" lon="4.17754">
        <ele>53.82</ele>
        <time>2025-07-10T18:29:59.466Z</time>
      </trkpt>
      <trkpt lat="43.7577" lon="4.1776">
        <ele>54.94</ele>
        <time>2025-07-10T18:30:04.884Z</time>
      </trkpt>
      <trkpt lat="43.75764" lon="4.1776">
        <ele>54.03</ele>
        <time>2025-07-10T18:30:09.900Z</time>
      </trkpt>
      <trkpt lat="43.75757" lon="4.17756">
        <ele>53.92</ele>
        <time>2025-07-10T18:30:15.780Z</time>
      </trkpt>
      <trkpt lat="43.7575" lon="4.17756">
        <ele>53.48</ele>
        <time>2025-07-10T18:30:20.785Z</time>
      </trkpt>
      <trkpt lat="43.75744" lon="4.17762">
        <ele>53.65</ele>
        <time>2025-07-10T18:30:26.335Z</time>
      </trkpt>
      <trkpt lat="43.75741" lon="4.17773">
        <ele>53.94</ele>
        <time>2025-07-10T18:30:31.884Z</time>
      </trkpt>
      <trkpt lat="43.75742" lon="4.17784">
        <ele>55.28</ele>
        <time>2025-07-10T18:30:37.001Z</time>
      </trkpt>
      <trkpt lat="43.7574" lon="4.17793">
        <ele>54.66</ele>
        <time>2025-07-10T18:30:42.426Z</time>
      </trkpt>
      <trkpt lat="43.75734" lon="4.17795">
        <ele>53.87</ele>
        <time>2025-07-10T18:30:47.890Z</time>
      </trkpt>
      <trkpt lat="43.75727" lon="4.17797">
        <ele>53.21</ele>
        <time>2025-07-10T18:30:53.701Z</time>
      </trkpt>
      <trkpt lat="43.75722" lon="4.17805">
        <ele>53.62</ele>
        <time>2025-07-10T18:30:58.902Z</time>
      </trkpt>
      <trkpt lat="43.75719" lon="4.17814">
        <ele>54.52</ele>
        <time>2025-07-10T18:31:04.365Z</time>
      </trkpt>
      <trkpt lat="43.75722" lon="4.17822">
        <ele>55.98</ele>
        <time>2025-07-10T18:31:09.367Z</time>
      </trkpt>
      <trkpt lat="43.75723" lon="4.17831">
        <ele>55.8</ele>
        <time>2025-07-10T18:31:14.665Z</time>
      </trkpt>
      <trkpt lat="43.75726" lon="4.17841">
        <ele>56.65</ele>
        <time>2025-07-10T18:31:20.326Z</time>
      </trkpt>
      <trkpt lat="43.75723" lon="4.1785">
        <ele>57.89</ele>
        <time>2025-07-10T18:31:25.881Z</time>
      </trkpt>
      <trkpt lat="43.75722" lon="4.17859">
        <ele>57.94</ele>
        <time>2025-07-10T18:31:31.327Z</time>
      </trkpt>
      <trkpt lat="43.75719" lon="4.17867">
        <ele>57.6</ele>
        <time>2025-07-10T18:31:36.485Z</time>
      </trkpt>
      <trkpt lat="43.75721" lon="4.17875">
        <ele>57.86</ele>
        <time>2025-07-10T18:31:41.887Z</time>
      </trkpt>
      <trkpt lat="43.75721" lon="4.17884">
        <ele>57.34</ele>
        <time>2025-07-10T18:31:46.904Z</time>
      </trkpt>
      <trkpt lat="43.7572" lon="4.17894">
        <ele>57.91</ele>
        <time>2025-07-10T18:31:52.881Z</time>
      </trkpt>
      <trkpt lat="43.75723" lon="4.17902">
        <ele>57.96</ele>
        <time>2025-07-10T18:31:57.895Z</time>
      </trkpt>
      <trkpt lat="43.75724" lon="4.1791">
        <ele>57.7</ele>
        <time>2025-07-10T18:32:03.658Z</time>
      </trkpt>
      <trkpt lat="43.75729" lon="4.17916">
        <ele>57.49</ele>
        <time>2025-07-10T18:32:09.086Z</time>
      </trkpt>
      <trkpt lat="43.75728" lon="4.17925">
        <ele>57.71</ele>
        <time>2025-07-10T18:32:14.574Z</time>
      </trkpt>
      <trkpt lat="43.75731" lon="4.17932">
        <ele>57.24</ele>
        <time>2025-07-10T18:32:19.877Z</time>
      </trkpt>
      <trkpt lat="43.75732" lon="4.17945">
        <ele>57.33</ele>
        <time>2025-07-10T18:32:25.564Z</time>
      </trkpt>
      <trkpt lat="43.75732" lon="4.17957">
        <ele>57.32</ele>
        <time>2025-07-10T18:32:30.870Z</time>
      </trkpt>
      <trkpt lat="43.75731" lon="4.17967">
        <ele>56.97</ele>
        <time>2025-07-10T18:32:35.884Z</time>
      </trkpt>
      <trkpt lat="43.75736" lon="4.17977">
        <ele>57.16</ele>
        <time>2025-07-10T18:32:41.768Z</time>
      </trkpt>
      <trkpt lat="43.75741" lon="4.17987">
        <ele>56.59</ele>
        <time>2025-07-10T18:32:46.877Z</time>
      </trkpt>
      <trkpt lat="43.75744" lon="4.17999">
        <ele>56.26</ele>
        <time>2025-07-10T18:32:52.286Z</time>
      </trkpt>
      <trkpt lat="43.75749" lon="4.18005">
        <ele>56.05</ele>
        <time>2025-07-10T18:32:57.867Z</time>
      </trkpt>
      <trkpt lat="43.75748" lon="4.18006">
        <ele>56.28</ele>
        <time>2025-07-10T18:33:02.883Z</time>
      </trkpt>
      <trkpt lat="43.75754" lon="4.18017">
        <ele>56.45</ele>
        <time>2025-07-10T18:33:07.898Z</time>
      </trkpt>
      <trkpt lat="43.75758" lon="4.18025">
        <ele>56.61</ele>
        <time>2025-07-10T18:33:13.025Z</time>
      </trkpt>
      <trkpt lat="43.75766" lon="4.1803">
        <ele>56.28</ele>
        <time>2025-07-10T18:33:18.388Z</time>
      </trkpt>
      <trkpt lat="43.7577" lon="4.18037">
        <ele>56.84</ele>
        <time>2025-07-10T18:33:23.448Z</time>
      </trkpt>
      <trkpt lat="43.75775" lon="4.18044">
        <ele>58</ele>
        <time>2025-07-10T18:33:28.814Z</time>
      </trkpt>
      <trkpt lat="43.75783" lon="4.18047">
        <ele>58.55</ele>
        <time>2025-07-10T18:33:34.665Z</time>
      </trkpt>
      <trkpt lat="43.75791" lon="4.18048">
        <ele>58.51</ele>
        <time>2025-07-10T18:33:39.805Z</time>
      </trkpt>
      <trkpt lat="43.758" lon="4.18045">
        <ele>58.24</ele>
        <time>2025-07-10T18:33:45.165Z</time>
      </trkpt>
      <trkpt lat="43.75808" lon="4.18045">
        <ele>58.89</ele>
        <time>2025-07-10T18:33:50.464Z</time>
      </trkpt>
      <trkpt lat="43.75813" lon="4.18048">
        <ele>60.18</ele>
        <time>2025-07-10T18:33:55.599Z</time>
      </trkpt>
      <trkpt lat="43.75819" lon="4.18053">
        <ele>60.31</ele>
        <time>2025-07-10T18:34:00.828Z</time>
      </trkpt>
      <trkpt lat="43.75827" lon="4.18056">
        <ele>60.42</ele>
        <time>2025-07-10T18:34:06.804Z</time>
      </trkpt>
      <trkpt lat="43.75836" lon="4.18057">
        <ele>61.14</ele>
        <time>2025-07-10T18:34:12.687Z</time>
      </trkpt>
      <trkpt lat="43.75841" lon="4.18064">
        <ele>60.55</ele>
        <time>2025-07-10T18:34:18.166Z</time>
      </trkpt>
      <trkpt lat="43.75847" lon="4.18064">
        <ele>61.33</ele>
        <time>2025-07-10T18:34:23.668Z</time>
      </trkpt>
      <trkpt lat="43.75853" lon="4.18067">
        <ele>61.94</ele>
        <time>2025-07-10T18:34:28.728Z</time>
      </trkpt>
      <trkpt lat="43.75858" lon="4.18061">
        <ele>61.87</ele>
        <time>2025-07-10T18:34:34.189Z</time>
      </trkpt>
      <trkpt lat="43.75865" lon="4.18058">
        <ele>62.52</ele>
        <time>2025-07-10T18:34:39.590Z</time>
      </trkpt>
      <trkpt lat="43.75871" lon="4.18064">
        <ele>63.43</ele>
        <time>2025-07-10T18:34:45.165Z</time>
      </trkpt>
      <trkpt lat="43.75876" lon="4.1807">
        <ele>63.43</ele>
        <time>2025-07-10T18:34:50.400Z</time>
      </trkpt>
      <trkpt lat="43.75885" lon="4.18072">
        <ele>63.92</ele>
        <time>2025-07-10T18:34:55.893Z</time>
      </trkpt>
      <trkpt lat="43.75891" lon="4.18077">
        <ele>63.83</ele>
        <time>2025-07-10T18:35:01.384Z</time>
      </trkpt>
      <trkpt lat="43.75895" lon="4.18083">
        <ele>63.95</ele>
        <time>2025-07-10T18:35:06.701Z</time>
      </trkpt>
      <trkpt lat="43.75899" lon="4.18091">
        <ele>64.15</ele>
        <time>2025-07-10T18:35:12.106Z</time>
      </trkpt>
      <trkpt lat="43.759" lon="4.181">
        <ele>64.96</ele>
        <time>2025-07-10T18:35:17.567Z</time>
      </trkpt>
      <trkpt lat="43.75902" lon="4.18109">
        <ele>65.19</ele>
        <time>2025-07-10T18:35:22.702Z</time>
      </trkpt>
      <trkpt lat="43.75906" lon="4.18121">
        <ele>65.42</ele>
        <time>2025-07-10T18:35:27.883Z</time>
      </trkpt>
      <trkpt lat="43.7591" lon="4.18134">
        <ele>65.78</ele>
        <time>2025-07-10T18:35:33.670Z</time>
      </trkpt>
      <trkpt lat="43.75912" lon="4.18142">
        <ele>65.89</ele>
        <time>2025-07-10T18:35:38.998Z</time>
      </trkpt>
      <trkpt lat="43.75917" lon="4.18152">
        <ele>66.14</ele>
        <time>2025-07-10T18:35:44.397Z</time>
      </trkpt>
      <trkpt lat="43.75924" lon="4.1816">
        <ele>67.07</ele>
        <time>2025-07-10T18:35:49.782Z</time>
      </trkpt>
      <trkpt lat="43.75923" lon="4.18171">
        <ele>67</ele>
        <time>2025-07-10T18:35:55.841Z</time>
      </trkpt>
      <trkpt lat="43.75924" lon="4.1818">
        <ele>67.04</ele>
        <time>2025-07-10T18:36:01.202Z</time>
      </trkpt>
      <trkpt lat="43.7593" lon="4.18189">
        <ele>66.78</ele>
        <time>2025-07-10T18:36:06.460Z</time>
      </trkpt>
      <trkpt lat="43.75936" lon="4.18198">
        <ele>67.09</ele>
        <time>2025-07-10T18:36:11.740Z</time>
      </trkpt>
      <trkpt lat="43.75942" lon="4.18194">
        <ele>68</ele>
        <time>2025-07-10T18:36:16.887Z</time>
      </trkpt>
      <trkpt lat="43.75949" lon="4.18189">
        <ele>67.9</ele>
        <time>2025-07-10T18:36:22.463Z</time>
      </trkpt>
      <trkpt lat="43.75953" lon="4.18178">
        <ele>68.1</ele>
        <time>2025-07-10T18:36:27.741Z</time>
      </trkpt>
      <trkpt lat="43.7596" lon="4.18174">
        <ele>68.15</ele>
        <time>2025-07-10T18:36:32.894Z</time>
      </trkpt>
      <trkpt lat="43.75967" lon="4.18178">
        <ele>68.16</ele>
        <time>2025-07-10T18:36:38.484Z</time>
      </trkpt>
      <trkpt lat="43.75975" lon="4.18184">
        <ele>68.2</ele>
        <time>2025-07-10T18:36:43.863Z</time>
      </trkpt>
      <trkpt lat="43.75982" lon="4.18189">
        <ele>68.8</ele>
        <time>2025-07-10T18:36:49.280Z</time>
      </trkpt>
      <trkpt lat="43.7599" lon="4.18193">
        <ele>69.24</ele>
        <time>2025-07-10T18:36:54.703Z</time>
      </trkpt>
      <trkpt lat="43.75997" lon="4.1819">
        <ele>68.55</ele>
        <time>2025-07-10T18:36:59.892Z</time>
      </trkpt>
      <trkpt lat="43.76005" lon="4.18184">
        <ele>69.21</ele>
        <time>2025-07-10T18:37:05.561Z</time>
      </trkpt>
      <trkpt lat="43.76011" lon="4.18177">
        <ele>69.01</ele>
        <time>2025-07-10T18:37:10.884Z</time>
      </trkpt>
      <trkpt lat="43.76016" lon="4.18166">
        <ele>70.25</ele>
        <time>2025-07-10T18:37:16.546Z</time>
      </trkpt>
      <trkpt lat="43.76021" lon="4.18159">
        <ele>71.16</ele>
        <time>2025-07-10T18:37:21.875Z</time>
      </trkpt>
      <trkpt lat="43.76028" lon="4.18157">
        <ele>70.46</ele>
        <time>2025-07-10T18:37:26.892Z</time>
      </trkpt>
      <trkpt lat="43.76035" lon="4.18156">
        <ele>70.88</ele>
        <time>2025-07-10T18:37:32.078Z</time>
      </trkpt>
      <trkpt lat="43.76045" lon="4.18157">
        <ele>71.18</ele>
        <time>2025-07-10T18:37:37.697Z</time>
      </trkpt>
      <trkpt lat="43.76052" lon="4.1816">
        <ele>71.05</ele>
        <time>2025-07-10T18:37:42.898Z</time>
      </trkpt>
      <trkpt lat="43.76058" lon="4.18163">
        <ele>73.19</ele>
        <time>2025-07-10T18:37:48.239Z</time>
      </trkpt>
      <trkpt lat="43.76065" lon="4.18159">
        <ele>73.46</ele>
        <time>2025-07-10T18:37:53.538Z</time>
      </trkpt>
      <trkpt lat="43.76073" lon="4.18153">
        <ele>74.1</ele>
        <time>2025-07-10T18:37:59.143Z</time>
      </trkpt>
      <trkpt lat="43.76081" lon="4.18151">
        <ele>74.63</ele>
        <time>2025-07-10T18:38:04.668Z</time>
      </trkpt>
      <trkpt lat="43.76087" lon="4.18155">
        <ele>74.49</ele>
        <time>2025-07-10T18:38:09.784Z</time>
      </trkpt>
      <trkpt lat="43.76092" lon="4.18159">
        <ele>75.13</ele>
        <time>2025-07-10T18:38:14.861Z</time>
      </trkpt>
      <trkpt lat="43.76098" lon="4.18164">
        <ele>75.71</ele>
        <time>2025-07-10T18:38:20.403Z</time>
      </trkpt>
      <trkpt lat="43.76101" lon="4.18171">
        <ele>75.48</ele>
        <time>2025-07-10T18:38:25.903Z</time>
      </trkpt>
      <trkpt lat="43.76105" lon="4.18179">
        <ele>75.6</ele>
        <time>2025-07-10T18:38:31.666Z</time>
      </trkpt>
      <trkpt lat="43.76112" lon="4.18182">
        <ele>74.63</ele>
        <time>2025-07-10T18:38:36.788Z</time>
      </trkpt>
      <trkpt lat="43.76118" lon="4.18177">
        <ele>75.42</ele>
        <time>2025-07-10T18:38:41.909Z</time>
      </trkpt>
      <trkpt lat="43.76124" lon="4.18174">
        <ele>75.8</ele>
        <time>2025-07-10T18:38:47.338Z</time>
      </trkpt>
      <trkpt lat="43.76129" lon="4.18168">
        <ele>76.3</ele>
        <time>2025-07-10T18:38:52.718Z</time>
      </trkpt>
      <trkpt lat="43.76125" lon="4.18158">
        <ele>76.56</ele>
        <time>2025-07-10T18:38:58.498Z</time>
      </trkpt>
      <trkpt lat="43.76124" lon="4.1815">
        <ele>76.77</ele>
        <time>2025-07-10T18:39:04.083Z</time>
      </trkpt>
      <trkpt lat="43.76123" lon="4.18142">
        <ele>77.34</ele>
        <time>2025-07-10T18:39:09.548Z</time>
      </trkpt>
      <trkpt lat="43.76128" lon="4.18138">
        <ele>77.82</ele>
        <time>2025-07-10T18:39:14.884Z</time>
      </trkpt>
      <trkpt lat="43.76135" lon="4.18137">
        <ele>78.47</ele>
        <time>2025-07-10T18:39:19.900Z</time>
      </trkpt>
      <trkpt lat="43.76142" lon="4.18137">
        <ele>78.44</ele>
        <time>2025-07-10T18:39:24.961Z</time>
      </trkpt>
      <trkpt lat="43.76148" lon="4.18131">
        <ele>78.63</ele>
        <time>2025-07-10T18:39:30.155Z</time>
      </trkpt>
      <trkpt lat="43.76154" lon="4.18128">
        <ele>79.28</ele>
        <time>2025-07-10T18:39:35.372Z</time>
      </trkpt>
      <trkpt lat="43.7616" lon="4.18122">
        <ele>79.69</ele>
        <time>2025-07-10T18:39:40.879Z</time>
      </trkpt>
      <trkpt lat="43.76164" lon="4.18115">
        <ele>80.4</ele>
        <time>2025-07-10T18:39:46.137Z</time>
      </trkpt>
      <trkpt lat="43.76171" lon="4.18118">
        <ele>79.96</ele>
        <time>2025-07-10T18:39:51.801Z</time>
      </trkpt>
      <trkpt lat="43.76178" lon="4.18123">
        <ele>79.54</ele>
        <time>2025-07-10T18:39:57.403Z</time>
      </trkpt>
      <trkpt lat="43.76185" lon="4.18123">
        <ele>79.53</ele>
        <time>2025-07-10T18:40:02.904Z</time>
      </trkpt>
      <trkpt lat="43.7619" lon="4.18129">
        <ele>79.77</ele>
        <time>2025-07-10T18:40:08.685Z</time>
      </trkpt>
      <trkpt lat="43.76193" lon="4.18137">
        <ele>79.67</ele>
        <time>2025-07-10T18:40:14.323Z</time>
      </trkpt>
      <trkpt lat="43.76199" lon="4.18143">
        <ele>79.64</ele>
        <time>2025-07-10T18:40:19.326Z</time>
      </trkpt>
      <trkpt lat="43.76205" lon="4.18148">
        <ele>79.63</ele>
        <time>2025-07-10T18:40:24.460Z</time>
      </trkpt>
      <trkpt lat="43.7621" lon="4.18157">
        <ele>78.51</ele>
        <time>2025-07-10T18:40:29.903Z</time>
      </trkpt>
      <trkpt lat="43.76216" lon="4.18157">
        <ele>77.85</ele>
        <time>2025-07-10T18:40:35.179Z</time>
      </trkpt>
      <trkpt lat="43.76223" lon="4.1815">
        <ele>78.5</ele>
        <time>2025-07-10T18:40:40.498Z</time>
      </trkpt>
      <trkpt lat="43.76226" lon="4.18141">
        <ele>80.63</ele>
        <time>2025-07-10T18:40:45.803Z</time>
      </trkpt>
      <trkpt lat="43.7623" lon="4.18134">
        <ele>78.7</ele>
        <time>2025-07-10T18:40:50.819Z</time>
      </trkpt>
      <trkpt lat="43.76236" lon="4.1813">
        <ele>78.83</ele>
        <time>2025-07-10T18:40:55.834Z</time>
      </trkpt>
      <trkpt lat="43.76243" lon="4.18125">
        <ele>80.85</ele>
        <time>2025-07-10T18:41:01.416Z</time>
      </trkpt>
      <trkpt lat="43.76248" lon="4.18127">
        <ele>81.41</ele>
        <time>2025-07-10T18:41:06.826Z</time>
      </trkpt>
      <trkpt lat="43.76251" lon="4.18134">
        <ele>80.5</ele>
        <time>2025-07-10T18:41:11.841Z</time>
      </trkpt>
      <trkpt lat="43.76253" lon="4.18139">
        <ele>80.95</ele>
        <time>2025-07-10T18:41:17.840Z</time>
      </trkpt>
      <trkpt lat="43.76253" lon="4.18151">
        <ele>80.19</ele>
        <time>2025-07-10T18:41:23.218Z</time>
      </trkpt>
      <trkpt lat="43.76252" lon="4.18165">
        <ele>80.1</ele>
        <time>2025-07-10T18:41:28.677Z</time>
      </trkpt>
      <trkpt lat="43.76252" lon="4.18179">
        <ele>79.81</ele>
        <time>2025-07-10T18:41:33.825Z</time>
      </trkpt>
      <trkpt lat="43.76251" lon="4.18193">
        <ele>79.36</ele>
        <time>2025-07-10T18:41:38.839Z</time>
      </trkpt>
      <trkpt lat="43.7625" lon="4.18204">
        <ele>79.27</ele>
        <time>2025-07-10T18:41:44.683Z</time>
      </trkpt>
      <trkpt lat="43.76254" lon="4.18212">
        <ele>78.95</ele>
        <time>2025-07-10T18:41:49.830Z</time>
      </trkpt>
      <trkpt lat="43.76258" lon="4.18221">
        <ele>79.19</ele>
        <time>2025-07-10T18:41:55.142Z</time>
      </trkpt>
      <trkpt lat="43.76259" lon="4.18231">
        <ele>80.04</ele>
        <time>2025-07-10T18:42:00.718Z</time>
      </trkpt>
      <trkpt lat="43.7626" lon="4.18241">
        <ele>80.54</ele>
        <time>2025-07-10T18:42:06.184Z</time>
      </trkpt>
      <trkpt lat="43.76259" lon="4.18252">
        <ele>80.81</ele>
        <time>2025-07-10T18:42:11.797Z</time>
      </trkpt>
      <trkpt lat="43.7626" lon="4.18264">
        <ele>80.11</ele>
        <time>2025-07-10T18:42:17.281Z</time>
      </trkpt>
      <trkpt lat="43.76263" lon="4.18274">
        <ele>80.64</ele>
        <time>2025-07-10T18:42:22.723Z</time>
      </trkpt>
      <trkpt lat="43.76264" lon="4.18284">
        <ele>80.58</ele>
        <time>2025-07-10T18:42:28.165Z</time>
      </trkpt>
      <trkpt lat="43.76265" lon="4.18293">
        <ele>81.06</ele>
        <time>2025-07-10T18:42:33.481Z</time>
      </trkpt>
      <trkpt lat="43.76263" lon="4.18302">
        <ele>80.54</ele>
        <time>2025-07-10T18:42:38.812Z</time>
      </trkpt>
      <trkpt lat="43.76264" lon="4.18315">
        <ele>81.1</ele>
        <time>2025-07-10T18:42:44.678Z</time>
      </trkpt>
      <trkpt lat="43.76267" lon="4.18324">
        <ele>80.93</ele>
        <time>2025-07-10T18:42:49.804Z</time>
      </trkpt>
      <trkpt lat="43.7627" lon="4.18333">
        <ele>81.53</ele>
        <time>2025-07-10T18:42:54.819Z</time>
      </trkpt>
      <trkpt lat="43.76274" lon="4.18343">
        <ele>81.18</ele>
        <time>2025-07-10T18:43:00.700Z</time>
      </trkpt>
      <trkpt lat="43.76273" lon="4.18355">
        <ele>81.34</ele>
        <time>2025-07-10T18:43:06.063Z</time>
      </trkpt>
      <trkpt lat="43.76273" lon="4.18367">
        <ele>80.88</ele>
        <time>2025-07-10T18:43:11.363Z</time>
      </trkpt>
      <trkpt lat="43.76274" lon="4.18374">
        <ele>79.99</ele>
        <time>2025-07-10T18:43:16.374Z</time>
      </trkpt>
      <trkpt lat="43.76273" lon="4.18385">
        <ele>80.51</ele>
        <time>2025-07-10T18:43:21.817Z</time>
      </trkpt>
      <trkpt lat="43.7627" lon="4.18395">
        <ele>79.59</ele>
        <time>2025-07-10T18:43:26.832Z</time>
      </trkpt>
      <trkpt lat="43.76272" lon="4.18405">
        <ele>79.89</ele>
        <time>2025-07-10T18:43:32.680Z</time>
      </trkpt>
      <trkpt lat="43.76273" lon="4.18416">
        <ele>80.08</ele>
        <time>2025-07-10T18:43:37.823Z</time>
      </trkpt>
      <trkpt lat="43.76269" lon="4.18425">
        <ele>79.25</ele>
        <time>2025-07-10T18:43:43.243Z</time>
      </trkpt>
      <trkpt lat="43.76268" lon="4.18435">
        <ele>79.62</ele>
        <time>2025-07-10T18:43:48.520Z</time>
      </trkpt>
      <trkpt lat="43.76266" lon="4.18444">
        <ele>79.97</ele>
        <time>2025-07-10T18:43:53.831Z</time>
      </trkpt>
      <trkpt lat="43.76265" lon="4.18456">
        <ele>79.95</ele>
        <time>2025-07-10T18:43:58.845Z</time>
      </trkpt>
      <trkpt lat="43.76265" lon="4.18467">
        <ele>80.31</ele>
        <time>2025-07-10T18:44:04.682Z</time>
      </trkpt>
      <trkpt lat="43.76265" lon="4.18479">
        <ele>80.51</ele>
        <time>2025-07-10T18:44:09.919Z</time>
      </trkpt>
      <trkpt lat="43.76263" lon="4.1849">
        <ele>79.98</ele>
        <time>2025-07-10T18:44:15.177Z</time>
      </trkpt>
      <trkpt lat="43.76261" lon="4.18499">
        <ele>80.95</ele>
        <time>2025-07-10T18:44:20.715Z</time>
      </trkpt>
      <trkpt lat="43.76261" lon="4.18509">
        <ele>81.22</ele>
        <time>2025-07-10T18:44:25.844Z</time>
      </trkpt>
      <trkpt lat="43.76265" lon="4.18516">
        <ele>82.16</ele>
        <time>2025-07-10T18:44:31.236Z</time>
      </trkpt>
      <trkpt lat="43.76267" lon="4.18525">
        <ele>82.93</ele>
        <time>2025-07-10T18:44:36.582Z</time>
      </trkpt>
      <trkpt lat="43.76266" lon="4.18536">
        <ele>82.02</ele>
        <time>2025-07-10T18:44:42.681Z</time>
      </trkpt>
      <trkpt lat="43.76265" lon="4.18548">
        <ele>83.22</ele>
        <time>2025-07-10T18:44:48.176Z</time>
      </trkpt>
      <trkpt lat="43.76262" lon="4.18557">
        <ele>82.83</ele>
        <time>2025-07-10T18:44:53.689Z</time>
      </trkpt>
      <trkpt lat="43.7626" lon="4.18566">
        <ele>83.06</ele>
        <time>2025-07-10T18:44:58.924Z</time>
      </trkpt>
      <trkpt lat="43.76262" lon="4.18579">
        <ele>83.23</ele>
        <time>2025-07-10T18:45:04.682Z</time>
      </trkpt>
      <trkpt lat="43.76263" lon="4.18589">
        <ele>82.65</ele>
        <time>2025-07-10T18:45:09.915Z</time>
      </trkpt>
      <trkpt lat="43.7626" lon="4.18598">
        <ele>82.49</ele>
        <time>2025-07-10T18:45:15.476Z</time>
      </trkpt>
      <trkpt lat="43.76256" lon="4.18603">
        <ele>82.57</ele>
        <time>2025-07-10T18:45:20.800Z</time>
      </trkpt>
      <trkpt lat="43.76251" lon="4.18611">
        <ele>82.2</ele>
        <time>2025-07-10T18:45:25.923Z</time>
      </trkpt>
      <trkpt lat="43.76247" lon="4.18619">
        <ele>82.24</ele>
        <time>2025-07-10T18:45:31.761Z</time>
      </trkpt>
      <trkpt lat="43.76248" lon="4.18629">
        <ele>81.75</ele>
        <time>2025-07-10T18:45:36.807Z</time>
      </trkpt>
      <trkpt lat="43.76246" lon="4.18639">
        <ele>81.06</ele>
        <time>2025-07-10T18:45:42.723Z</time>
      </trkpt>
      <trkpt lat="43.76244" lon="4.18648">
        <ele>80.49</ele>
        <time>2025-07-10T18:45:47.799Z</time>
      </trkpt>
      <trkpt lat="43.76242" lon="4.1866">
        <ele>79.97</ele>
        <time>2025-07-10T18:45:53.566Z</time>
      </trkpt>
      <trkpt lat="43.76236" lon="4.18665">
        <ele>80.22</ele>
        <time>2025-07-10T18:45:58.896Z</time>
      </trkpt>
      <trkpt lat="43.76229" lon="4.18668">
        <ele>80.07</ele>
        <time>2025-07-10T18:46:04.486Z</time>
      </trkpt>
      <trkpt lat="43.76222" lon="4.18668">
        <ele>79.42</ele>
        <time>2025-07-10T18:46:09.888Z</time>
      </trkpt>
      <trkpt lat="43.76217" lon="4.18667">
        <ele>79.02</ele>
        <time>2025-07-10T18:46:15.330Z</time>
      </trkpt>
      <trkpt lat="43.76212" lon="4.18674">
        <ele>78.66</ele>
        <time>2025-07-10T18:46:20.345Z</time>
      </trkpt>
      <trkpt lat="43.76209" lon="4.18682">
        <ele>78.02</ele>
        <time>2025-07-10T18:46:25.361Z</time>
      </trkpt>
      <trkpt lat="43.76207" lon="4.18691">
        <ele>77.74</ele>
        <time>2025-07-10T18:46:30.376Z</time>
      </trkpt>
      <trkpt lat="43.76202" lon="4.18699">
        <ele>77.38</ele>
        <time>2025-07-10T18:46:35.439Z</time>
      </trkpt>
      <trkpt lat="43.76198" lon="4.18707">
        <ele>76.42</ele>
        <time>2025-07-10T18:46:41.041Z</time>
      </trkpt>
      <trkpt lat="43.76194" lon="4.18716">
        <ele>76.08</ele>
        <time>2025-07-10T18:46:46.689Z</time>
      </trkpt>
      <trkpt lat="43.76191" lon="4.18724">
        <ele>75.9</ele>
        <time>2025-07-10T18:46:52.184Z</time>
      </trkpt>
      <trkpt lat="43.76186" lon="4.18729">
        <ele>75.3</ele>
        <time>2025-07-10T18:46:57.375Z</time>
      </trkpt>
      <trkpt lat="43.76183" lon="4.18737">
        <ele>74.44</ele>
        <time>2025-07-10T18:47:02.390Z</time>
      </trkpt>
      <trkpt lat="43.76176" lon="4.18743">
        <ele>73.56</ele>
        <time>2025-07-10T18:47:07.446Z</time>
      </trkpt>
      <trkpt lat="43.76169" lon="4.18747">
        <ele>73.87</ele>
        <time>2025-07-10T18:47:12.953Z</time>
      </trkpt>
      <trkpt lat="43.76163" lon="4.18755">
        <ele>74.2</ele>
        <time>2025-07-10T18:47:18.578Z</time>
      </trkpt>
      <trkpt lat="43.76159" lon="4.18763">
        <ele>73.62</ele>
        <time>2025-07-10T18:47:24.260Z</time>
      </trkpt>
      <trkpt lat="43.76156" lon="4.18771">
        <ele>73.24</ele>
        <time>2025-07-10T18:47:29.693Z</time>
      </trkpt>
      <trkpt lat="43.76154" lon="4.1878">
        <ele>72.29</ele>
        <time>2025-07-10T18:47:35.001Z</time>
      </trkpt>
      <trkpt lat="43.76151" lon="4.18789">
        <ele>72.29</ele>
        <time>2025-07-10T18:47:40.383Z</time>
      </trkpt>
      <trkpt lat="43.76147" lon="4.18792">
        <ele>72.29</ele>
        <time>2025-07-10T18:47:45.394Z</time>
      </trkpt>
      <trkpt lat="43.76143" lon="4.18799">
        <ele>71.82</ele>
        <time>2025-07-10T18:47:50.837Z</time>
      </trkpt>
      <trkpt lat="43.76142" lon="4.18811">
        <ele>71.53</ele>
        <time>2025-07-10T18:47:56.585Z</time>
      </trkpt>
      <trkpt lat="43.76139" lon="4.18823">
        <ele>71.57</ele>
        <time>2025-07-10T18:48:01.828Z</time>
      </trkpt>
      <trkpt lat="43.76137" lon="4.18832">
        <ele>71.33</ele>
        <time>2025-07-10T18:48:07.477Z</time>
      </trkpt>
      <trkpt lat="43.76141" lon="4.1884">
        <ele>71.27</ele>
        <time>2025-07-10T18:48:12.818Z</time>
      </trkpt>
      <trkpt lat="43.76148" lon="4.18844">
        <ele>70.24</ele>
        <time>2025-07-10T18:48:18.395Z</time>
      </trkpt>
      <trkpt lat="43.76155" lon="4.18849">
        <ele>69.24</ele>
        <time>2025-07-10T18:48:23.458Z</time>
      </trkpt>
      <trkpt lat="43.76162" lon="4.18856">
        <ele>68.62</ele>
        <time>2025-07-10T18:48:28.500Z</time>
      </trkpt>
      <trkpt lat="43.76165" lon="4.18865">
        <ele>67.62</ele>
        <time>2025-07-10T18:48:34.485Z</time>
      </trkpt>
      <trkpt lat="43.76166" lon="4.18873">
        <ele>67.55</ele>
        <time>2025-07-10T18:48:39.924Z</time>
      </trkpt>
      <trkpt lat="43.76167" lon="4.18884">
        <ele>67.23</ele>
        <time>2025-07-10T18:48:45.502Z</time>
      </trkpt>
      <trkpt lat="43.7617" lon="4.18892">
        <ele>67.4</ele>
        <time>2025-07-10T18:48:50.826Z</time>
      </trkpt>
      <trkpt lat="43.76173" lon="4.18902">
        <ele>66.91</ele>
        <time>2025-07-10T18:48:56.476Z</time>
      </trkpt>
      <trkpt lat="43.76176" lon="4.18911">
        <ele>66.45</ele>
        <time>2025-07-10T18:49:01.841Z</time>
      </trkpt>
      <trkpt lat="43.76177" lon="4.18922">
        <ele>66.16</ele>
        <time>2025-07-10T18:49:07.692Z</time>
      </trkpt>
      <trkpt lat="43.76179" lon="4.1893">
        <ele>66.94</ele>
        <time>2025-07-10T18:49:13.449Z</time>
      </trkpt>
      <trkpt lat="43.76183" lon="4.18938">
        <ele>66.42</ele>
        <time>2025-07-10T18:49:18.890Z</time>
      </trkpt>
      <trkpt lat="43.76185" lon="4.18946">
        <ele>66.68</ele>
        <time>2025-07-10T18:49:24.063Z</time>
      </trkpt>
      <trkpt lat="43.76186" lon="4.18955">
        <ele>66.08</ele>
        <time>2025-07-10T18:49:29.685Z</time>
      </trkpt>
      <trkpt lat="43.76187" lon="4.18962">
        <ele>65.51</ele>
        <time>2025-07-10T18:49:34.802Z</time>
      </trkpt>
      <trkpt lat="43.76188" lon="4.18971">
        <ele>65.28</ele>
        <time>2025-07-10T18:49:39.923Z</time>
      </trkpt>
      <trkpt lat="43.76187" lon="4.18981">
        <ele>64.35</ele>
        <time>2025-07-10T18:49:45.421Z</time>
      </trkpt>
      <trkpt lat="43.76188" lon="4.18992">
        <ele>63.84</ele>
        <time>2025-07-10T18:49:50.880Z</time>
      </trkpt>
      <trkpt lat="43.76189" lon="4.19003">
        <ele>62.8</ele>
        <time>2025-07-10T18:49:55.921Z</time>
      </trkpt>
      <trkpt lat="43.76192" lon="4.19011">
        <ele>63.21</ele>
        <time>2025-07-10T18:50:01.365Z</time>
      </trkpt>
      <trkpt lat="43.76194" lon="4.19021">
        <ele>62.13</ele>
        <time>2025-07-10T18:50:06.848Z</time>
      </trkpt>
      <trkpt lat="43.76194" lon="4.19031">
        <ele>61.87</ele>
        <time>2025-07-10T18:50:11.925Z</time>
      </trkpt>
      <trkpt lat="43.76194" lon="4.19039">
        <ele>61.26</ele>
        <time>2025-07-10T18:50:17.369Z</time>
      </trkpt>
      <trkpt lat="43.76195" lon="4.19049">
        <ele>60.44</ele>
        <time>2025-07-10T18:50:22.442Z</time>
      </trkpt>
      <trkpt lat="43.76194" lon="4.19058">
        <ele>59.93</ele>
        <time>2025-07-10T18:50:27.642Z</time>
      </trkpt>
      <trkpt lat="43.76201" lon="4.19052">
        <ele>59.61</ele>
        <time>2025-07-10T18:50:33.226Z</time>
      </trkpt>
      <trkpt lat="43.76209" lon="4.1905">
        <ele>59.63</ele>
        <time>2025-07-10T18:50:38.720Z</time>
      </trkpt>
      <trkpt lat="43.76216" lon="4.19046">
        <ele>57.97</ele>
        <time>2025-07-10T18:50:43.833Z</time>
      </trkpt>
      <trkpt lat="43.76222" lon="4.19037">
        <ele>58.49</ele>
        <time>2025-07-10T18:50:49.323Z</time>
      </trkpt>
      <trkpt lat="43.76225" lon="4.19027">
        <ele>58.87</ele>
        <time>2025-07-10T18:50:54.674Z</time>
      </trkpt>
      <trkpt lat="43.7623" lon="4.19017">
        <ele>57.98</ele>
        <time>2025-07-10T18:50:59.842Z</time>
      </trkpt>
      <trkpt lat="43.76235" lon="4.19008">
        <ele>58.72</ele>
        <time>2025-07-10T18:51:05.880Z</time>
      </trkpt>
      <trkpt lat="43.76235" lon="4.18998">
        <ele>58.19</ele>
        <time>2025-07-10T18:51:11.288Z</time>
      </trkpt>
      <trkpt lat="43.76234" lon="4.18994">
        <ele>57.59</ele>
        <time>2025-07-10T18:51:16.544Z</time>
      </trkpt>
      <trkpt lat="43.76233" lon="4.18985">
        <ele>58.85</ele>
        <time>2025-07-10T18:51:21.822Z</time>
      </trkpt>
      <trkpt lat="43.76235" lon="4.18975">
        <ele>58.62</ele>
        <time>2025-07-10T18:51:26.919Z</time>
      </trkpt>
      <trkpt lat="43.76242" lon="4.18975">
        <ele>58.08</ele>
        <time>2025-07-10T18:51:32.327Z</time>
      </trkpt>
      <trkpt lat="43.76249" lon="4.18969">
        <ele>58.71</ele>
        <time>2025-07-10T18:51:37.643Z</time>
      </trkpt>
      <trkpt lat="43.76251" lon="4.18958">
        <ele>58.3</ele>
        <time>2025-07-10T18:51:42.924Z</time>
      </trkpt>
      <trkpt lat="43.76249" lon="4.18946">
        <ele>58.19</ele>
        <time>2025-07-10T18:51:48.280Z</time>
      </trkpt>
      <trkpt lat="43.76248" lon="4.18936">
        <ele>58.43</ele>
        <time>2025-07-10T18:51:53.689Z</time>
      </trkpt>
      <trkpt lat="43.76249" lon="4.18927">
        <ele>58.67</ele>
        <time>2025-07-10T18:51:58.849Z</time>
      </trkpt>
      <trkpt lat="43.7625" lon="4.18916">
        <ele>58.77</ele>
        <time>2025-07-10T18:52:03.865Z</time>
      </trkpt>
      <trkpt lat="43.7625" lon="4.18906">
        <ele>59.05</ele>
        <time>2025-07-10T18:52:09.628Z</time>
      </trkpt>
      <trkpt lat="43.76248" lon="4.18897">
        <ele>59.13</ele>
        <time>2025-07-10T18:52:14.663Z</time>
      </trkpt>
      <trkpt lat="43.76251" lon="4.1889">
        <ele>59.42</ele>
        <time>2025-07-10T18:52:20.140Z</time>
      </trkpt>
      <trkpt lat="43.76254" lon="4.18885">
        <ele>58.98</ele>
        <time>2025-07-10T18:52:25.314Z</time>
      </trkpt>
      <trkpt lat="43.76263" lon="4.18879">
        <ele>56.87</ele>
        <time>2025-07-10T18:52:30.863Z</time>
      </trkpt>
      <trkpt lat="43.76263" lon="4.18866">
        <ele>59.19</ele>
        <time>2025-07-10T18:52:36.839Z</time>
      </trkpt>
      <trkpt lat="43.76258" lon="4.18857">
        <ele>60.51</ele>
        <time>2025-07-10T18:52:41.855Z</time>
      </trkpt>
      <trkpt lat="43.7626" lon="4.18847">
        <ele>60.92</ele>
        <time>2025-07-10T18:52:46.870Z</time>
      </trkpt>
      <trkpt lat="43.76268" lon="4.1884">
        <ele>61.54</ele>
        <time>2025-07-10T18:52:52.847Z</time>
      </trkpt>
      <trkpt lat="43.76275" lon="4.18835">
        <ele>60.63</ele>
        <time>2025-07-10T18:52:58.718Z</time>
      </trkpt>
      <trkpt lat="43.76281" lon="4.18834">
        <ele>59.71</ele>
        <time>2025-07-10T18:53:03.838Z</time>
      </trkpt>
      <trkpt lat="43.76287" lon="4.18829">
        <ele>59.24</ele>
        <time>2025-07-10T18:53:08.854Z</time>
      </trkpt>
      <trkpt lat="43.76295" lon="4.18825">
        <ele>59.95</ele>
        <time>2025-07-10T18:53:14.403Z</time>
      </trkpt>
      <trkpt lat="43.76303" lon="4.18821">
        <ele>59.06</ele>
        <time>2025-07-10T18:53:19.846Z</time>
      </trkpt>
      <trkpt lat="43.76311" lon="4.18819">
        <ele>57.53</ele>
        <time>2025-07-10T18:53:24.962Z</time>
      </trkpt>
      <trkpt lat="43.76317" lon="4.18812">
        <ele>56.98</ele>
        <time>2025-07-10T18:53:30.838Z</time>
      </trkpt>
      <trkpt lat="43.76322" lon="4.18805">
        <ele>57.05</ele>
        <time>2025-07-10T18:53:35.852Z</time>
      </trkpt>
      <trkpt lat="43.76327" lon="4.18798">
        <ele>57.89</ele>
        <time>2025-07-10T18:53:40.862Z</time>
      </trkpt>
      <trkpt lat="43.76332" lon="4.18793">
        <ele>57.75</ele>
        <time>2025-07-10T18:53:45.884Z</time>
      </trkpt>
      <trkpt lat="43.76335" lon="4.18783">
        <ele>58.01</ele>
        <time>2025-07-10T18:53:51.704Z</time>
      </trkpt>
      <trkpt lat="43.76333" lon="4.1877">
        <ele>58.01</ele>
        <time>2025-07-10T18:53:57.164Z</time>
      </trkpt>
      <trkpt lat="43.76334" lon="4.18761">
        <ele>58.6</ele>
        <time>2025-07-10T18:54:02.318Z</time>
      </trkpt>
      <trkpt lat="43.76338" lon="4.18752">
        <ele>58.68</ele>
        <time>2025-07-10T18:54:07.879Z</time>
      </trkpt>
      <trkpt lat="43.76343" lon="4.18743">
        <ele>60.39</ele>
        <time>2025-07-10T18:54:13.943Z</time>
      </trkpt>
      <trkpt lat="43.76345" lon="4.18734">
        <ele>59.94</ele>
        <time>2025-07-10T18:54:19.387Z</time>
      </trkpt>
      <trkpt lat="43.76346" lon="4.18724">
        <ele>60.21</ele>
        <time>2025-07-10T18:54:24.819Z</time>
      </trkpt>
      <trkpt lat="43.76346" lon="4.18714">
        <ele>60.16</ele>
        <time>2025-07-10T18:54:29.849Z</time>
      </trkpt>
      <trkpt lat="43.76346" lon="4.18704">
        <ele>60.69</ele>
        <time>2025-07-10T18:54:35.287Z</time>
      </trkpt>
      <trkpt lat="43.76347" lon="4.18696">
        <ele>62.19</ele>
        <time>2025-07-10T18:54:40.673Z</time>
      </trkpt>
      <trkpt lat="43.76351" lon="4.1869">
        <ele>62.2</ele>
        <time>2025-07-10T18:54:46.081Z</time>
      </trkpt>
      <trkpt lat="43.76358" lon="4.18687">
        <ele>61.61</ele>
        <time>2025-07-10T18:54:51.543Z</time>
      </trkpt>
      <trkpt lat="43.76362" lon="4.18677">
        <ele>61.59</ele>
        <time>2025-07-10T18:54:56.848Z</time>
      </trkpt>
      <trkpt lat="43.7636" lon="4.18665">
        <ele>62.21</ele>
        <time>2025-07-10T18:55:02.508Z</time>
      </trkpt>
      <trkpt lat="43.76361" lon="4.18656">
        <ele>63.02</ele>
        <time>2025-07-10T18:55:08.020Z</time>
      </trkpt>
      <trkpt lat="43.76361" lon="4.18645">
        <ele>62.72</ele>
        <time>2025-07-10T18:55:13.657Z</time>
      </trkpt>
      <trkpt lat="43.76363" lon="4.18637">
        <ele>63.33</ele>
        <time>2025-07-10T18:55:19.200Z</time>
      </trkpt>
      <trkpt lat="43.76362" lon="4.18628">
        <ele>63.6</ele>
        <time>2025-07-10T18:55:24.765Z</time>
      </trkpt>
      <trkpt lat="43.76363" lon="4.18619">
        <ele>63.69</ele>
        <time>2025-07-10T18:55:30.199Z</time>
      </trkpt>
      <trkpt lat="43.76363" lon="4.18609">
        <ele>64.13</ele>
        <time>2025-07-10T18:55:35.478Z</time>
      </trkpt>
      <trkpt lat="43.76363" lon="4.186">
        <ele>63.87</ele>
        <time>2025-07-10T18:55:40.540Z</time>
      </trkpt>
      <trkpt lat="43.76366" lon="4.18591">
        <ele>64.24</ele>
        <time>2025-07-10T18:55:45.566Z</time>
      </trkpt>
      <trkpt lat="43.76366" lon="4.18583">
        <ele>64.15</ele>
        <time>2025-07-10T18:55:50.632Z</time>
      </trkpt>
      <trkpt lat="43.76364" lon="4.18573">
        <ele>64.04</ele>
        <time>2025-07-10T18:55:55.861Z</time>
      </trkpt>
      <trkpt lat="43.76368" lon="4.18563">
        <ele>64.54</ele>
        <time>2025-07-10T18:56:01.304Z</time>
      </trkpt>
      <trkpt lat="43.76372" lon="4.18556">
        <ele>64.64</ele>
        <time>2025-07-10T18:56:06.483Z</time>
      </trkpt>
      <trkpt lat="43.76375" lon="4.18548">
        <ele>64.34</ele>
        <time>2025-07-10T18:56:11.867Z</time>
      </trkpt>
      <trkpt lat="43.76375" lon="4.18538">
        <ele>63.93</ele>
        <time>2025-07-10T18:56:16.882Z</time>
      </trkpt>
      <trkpt lat="43.76375" lon="4.18526">
        <ele>64.03</ele>
        <time>2025-07-10T18:56:22.798Z</time>
      </trkpt>
      <trkpt lat="43.76377" lon="4.18516">
        <ele>64.59</ele>
        <time>2025-07-10T18:56:27.873Z</time>
      </trkpt>
      <trkpt lat="43.76382" lon="4.18507">
        <ele>64.05</ele>
        <time>2025-07-10T18:56:33.506Z</time>
      </trkpt>
      <trkpt lat="43.76386" lon="4.18499">
        <ele>64.24</ele>
        <time>2025-07-10T18:56:38.865Z</time>
      </trkpt>
      <trkpt lat="43.76386" lon="4.18488">
        <ele>64.55</ele>
        <time>2025-07-10T18:56:44.319Z</time>
      </trkpt>
      <trkpt lat="43.76385" lon="4.18479">
        <ele>64.77</ele>
        <time>2025-07-10T18:56:49.856Z</time>
      </trkpt>
      <trkpt lat="43.76387" lon="4.18472">
        <ele>64.84</ele>
        <time>2025-07-10T18:56:54.871Z</time>
      </trkpt>
      <trkpt lat="43.76388" lon="4.18464">
        <ele>64.5</ele>
        <time>2025-07-10T18:56:59.961Z</time>
      </trkpt>
      <trkpt lat="43.76387" lon="4.18452">
        <ele>64.86</ele>
        <time>2025-07-10T18:57:05.741Z</time>
      </trkpt>
      <trkpt lat="43.76384" lon="4.18444">
        <ele>66.3</ele>
        <time>2025-07-10T18:57:10.785Z</time>
      </trkpt>
      <trkpt lat="43.76386" lon="4.18435">
        <ele>65.17</ele>
        <time>2025-07-10T18:57:16.146Z</time>
      </trkpt>
      <trkpt lat="43.76385" lon="4.18425">
        <ele>66.44</ele>
        <time>2025-07-10T18:57:21.544Z</time>
      </trkpt>
      <trkpt lat="43.76383" lon="4.18415">
        <ele>66.42</ele>
        <time>2025-07-10T18:57:26.886Z</time>
      </trkpt>
      <trkpt lat="43.7638" lon="4.18406">
        <ele>66.78</ele>
        <time>2025-07-10T18:57:31.900Z</time>
      </trkpt>
      <trkpt lat="43.76379" lon="4.18398">
        <ele>67.51</ele>
        <time>2025-07-10T18:57:36.916Z</time>
      </trkpt>
      <trkpt lat="43.76376" lon="4.18391">
        <ele>67.43</ele>
        <time>2025-07-10T18:57:42.424Z</time>
      </trkpt>
      <trkpt lat="43.76371" lon="4.18385">
        <ele>67.71</ele>
        <time>2025-07-10T18:57:47.582Z</time>
      </trkpt>
      <trkpt lat="43.76367" lon="4.18379">
        <ele>67.98</ele>
        <time>2025-07-10T18:57:52.880Z</time>
      </trkpt>
      <trkpt lat="43.76365" lon="4.18368">
        <ele>68.25</ele>
        <time>2025-07-10T18:57:58.402Z</time>
      </trkpt>
      <trkpt lat="43.76361" lon="4.18359">
        <ele>68.33</ele>
        <time>2025-07-10T18:58:03.766Z</time>
      </trkpt>
      <trkpt lat="43.76358" lon="4.18347">
        <ele>67.95</ele>
        <time>2025-07-10T18:58:09.262Z</time>
      </trkpt>
      <trkpt lat="43.76356" lon="4.18338">
        <ele>67.08</ele>
        <time>2025-07-10T18:58:14.371Z</time>
      </trkpt>
      <trkpt lat="43.76354" lon="4.18329">
        <ele>67.03</ele>
        <time>2025-07-10T18:58:19.387Z</time>
      </trkpt>
      <trkpt lat="43.76354" lon="4.18319">
        <ele>66.75</ele>
        <time>2025-07-10T18:58:24.829Z</time>
      </trkpt>
      <trkpt lat="43.76353" lon="4.1831">
        <ele>67.3</ele>
        <time>2025-07-10T18:58:30.124Z</time>
      </trkpt>
      <trkpt lat="43.7635" lon="4.18303">
        <ele>67.74</ele>
        <time>2025-07-10T18:58:35.346Z</time>
      </trkpt>
      <trkpt lat="43.76343" lon="4.18301">
        <ele>68.15</ele>
        <time>2025-07-10T18:58:40.359Z</time>
      </trkpt>
      <trkpt lat="43.76337" lon="4.183">
        <ele>68.85</ele>
        <time>2025-07-10T18:58:45.401Z</time>
      </trkpt>
      <trkpt lat="43.7633" lon="4.18303">
        <ele>71.97</ele>
        <time>2025-07-10T18:58:50.685Z</time>
      </trkpt>
      <trkpt lat="43.76325" lon="4.183">
        <ele>73.24</ele>
        <time>2025-07-10T18:58:56.160Z</time>
      </trkpt>
      <trkpt lat="43.76322" lon="4.18304">
        <ele>71.35</ele>
        <time>2025-07-10T18:59:01.858Z</time>
      </trkpt>
      <trkpt lat="43.76317" lon="4.18302">
        <ele>73.18</ele>
        <time>2025-07-10T18:59:06.873Z</time>
      </trkpt>
      <trkpt lat="43.76312" lon="4.18296">
        <ele>74.31</ele>
        <time>2025-07-10T18:59:11.890Z</time>
      </trkpt>
      <trkpt lat="43.76307" lon="4.1829">
        <ele>74.05</ele>
        <time>2025-07-10T18:59:17.682Z</time>
      </trkpt>
      <trkpt lat="43.76306" lon="4.18279">
        <ele>74.07</ele>
        <time>2025-07-10T18:59:22.803Z</time>
      </trkpt>
      <trkpt lat="43.76305" lon="4.18269">
        <ele>76.1</ele>
        <time>2025-07-10T18:59:27.863Z</time>
      </trkpt>
      <trkpt lat="43.76305" lon="4.1826">
        <ele>73.87</ele>
        <time>2025-07-10T18:59:33.440Z</time>
      </trkpt>
      <trkpt lat="43.76306" lon="4.18252">
        <ele>76.14</ele>
        <time>2025-07-10T18:59:38.463Z</time>
      </trkpt>
      <trkpt lat="43.76305" lon="4.18244">
        <ele>73.67</ele>
        <time>2025-07-10T18:59:43.797Z</time>
      </trkpt>
      <trkpt lat="43.76307" lon="4.18236">
        <ele>72.5</ele>
        <time>2025-07-10T18:59:48.824Z</time>
      </trkpt>
      <trkpt lat="43.76306" lon="4.18225">
        <ele>74.43</ele>
        <time>2025-07-10T18:59:54.682Z</time>
      </trkpt>
      <trkpt lat="43.76304" lon="4.18217">
        <ele>74.27</ele>
        <time>2025-07-10T18:59:59.911Z</time>
      </trkpt>
      <trkpt lat="43.76309" lon="4.18208">
        <ele>73.85</ele>
        <time>2025-07-10T19:00:05.240Z</time>
      </trkpt>
      <trkpt lat="43.76311" lon="4.18197">
        <ele>72.62</ele>
        <time>2025-07-10T19:00:10.660Z</time>
      </trkpt>
      <trkpt lat="43.76307" lon="4.18186">
        <ele>72.64</ele>
        <time>2025-07-10T19:00:15.778Z</time>
      </trkpt>
      <trkpt lat="43.76306" lon="4.18174">
        <ele>72.82</ele>
        <time>2025-07-10T19:00:21.318Z</time>
      </trkpt>
      <trkpt lat="43.76303" lon="4.18166">
        <ele>72.27</ele>
        <time>2025-07-10T19:00:26.659Z</time>
      </trkpt>
      <trkpt lat="43.76304" lon="4.18154">
        <ele>71.64</ele>
        <time>2025-07-10T19:00:31.926Z</time>
      </trkpt>
      <trkpt lat="43.76308" lon="4.18144">
        <ele>71.14</ele>
        <time>2025-07-10T19:00:37.408Z</time>
      </trkpt>
      <trkpt lat="43.76311" lon="4.18135">
        <ele>71.28</ele>
        <time>2025-07-10T19:00:42.692Z</time>
      </trkpt>
      <trkpt lat="43.76308" lon="4.18125">
        <ele>71.55</ele>
        <time>2025-07-10T19:00:48.172Z</time>
      </trkpt>
      <trkpt lat="43.76308" lon="4.18114">
        <ele>72.48</ele>
        <time>2025-07-10T19:00:53.583Z</time>
      </trkpt>
      <trkpt lat="43.76305" lon="4.18105">
        <ele>72.57</ele>
        <time>2025-07-10T19:00:58.900Z</time>
      </trkpt>
      <trkpt lat="43.76304" lon="4.18094">
        <ele>72.31</ele>
        <time>2025-07-10T19:01:04.293Z</time>
      </trkpt>
      <trkpt lat="43.76304" lon="4.18084">
        <ele>72.53</ele>
        <time>2025-07-10T19:01:09.678Z</time>
      </trkpt>
      <trkpt lat="43.76304" lon="4.18074">
        <ele>73.29</ele>
        <time>2025-07-10T19:01:14.932Z</time>
      </trkpt>
      <trkpt lat="43.76302" lon="4.18065">
        <ele>72.03</ele>
        <time>2025-07-10T19:01:20.907Z</time>
      </trkpt>
      <trkpt lat="43.76314" lon="4.18057">
        <ele>72.63</ele>
        <time>2025-07-10T19:01:26.882Z</time>
      </trkpt>
      <trkpt lat="43.76318" lon="4.1805">
        <ele>72.77</ele>
        <time>2025-07-10T19:01:32.965Z</time>
      </trkpt>
      <trkpt lat="43.76323" lon="4.18041">
        <ele>71.22</ele>
        <time>2025-07-10T19:01:38.944Z</time>
      </trkpt>
      <trkpt lat="43.76326" lon="4.18032">
        <ele>75.27</ele>
        <time>2025-07-10T19:01:43.957Z</time>
      </trkpt>
      <trkpt lat="43.76326" lon="4.18021">
        <ele>72.77</ele>
        <time>2025-07-10T19:01:48.973Z</time>
      </trkpt>
      <trkpt lat="43.76325" lon="4.18012">
        <ele>72.93</ele>
        <time>2025-07-10T19:01:54.348Z</time>
      </trkpt>
      <trkpt lat="43.76324" lon="4.18004">
        <ele>73.53</ele>
        <time>2025-07-10T19:01:59.799Z</time>
      </trkpt>
      <trkpt lat="43.76328" lon="4.17995">
        <ele>72.63</ele>
        <time>2025-07-10T19:02:05.145Z</time>
      </trkpt>
      <trkpt lat="43.7633" lon="4.17986">
        <ele>72.68</ele>
        <time>2025-07-10T19:02:10.561Z</time>
      </trkpt>
      <trkpt lat="43.7633" lon="4.17974">
        <ele>72.66</ele>
        <time>2025-07-10T19:02:16.340Z</time>
      </trkpt>
      <trkpt lat="43.76333" lon="4.17965">
        <ele>73.11</ele>
        <time>2025-07-10T19:02:21.364Z</time>
      </trkpt>
      <trkpt lat="43.76335" lon="4.17957">
        <ele>73.21</ele>
        <time>2025-07-10T19:02:26.780Z</time>
      </trkpt>
      <trkpt lat="43.76336" lon="4.17945">
        <ele>72.43</ele>
        <time>2025-07-10T19:02:32.303Z</time>
      </trkpt>
      <trkpt lat="43.76337" lon="4.17935">
        <ele>72.99</ele>
        <time>2025-07-10T19:02:37.842Z</time>
      </trkpt>
      <trkpt lat="43.76337" lon="4.17925">
        <ele>72.66</ele>
        <time>2025-07-10T19:02:43.366Z</time>
      </trkpt>
      <trkpt lat="43.76335" lon="4.17916">
        <ele>73.27</ele>
        <time>2025-07-10T19:02:48.904Z</time>
      </trkpt>
      <trkpt lat="43.76338" lon="4.1791">
        <ele>74.13</ele>
        <time>2025-07-10T19:02:54.388Z</time>
      </trkpt>
      <trkpt lat="43.76342" lon="4.17903">
        <ele>73.48</ele>
        <time>2025-07-10T19:02:59.404Z</time>
      </trkpt>
      <trkpt lat="43.76346" lon="4.17892">
        <ele>73.21</ele>
        <time>2025-07-10T19:03:04.845Z</time>
      </trkpt>
      <trkpt lat="43.76348" lon="4.17883">
        <ele>73.18</ele>
        <time>2025-07-10T19:03:10.168Z</time>
      </trkpt>
      <trkpt lat="43.76347" lon="4.17872">
        <ele>73.03</ele>
        <time>2025-07-10T19:03:15.672Z</time>
      </trkpt>
      <trkpt lat="43.76345" lon="4.17862">
        <ele>73.65</ele>
        <time>2025-07-10T19:03:20.722Z</time>
      </trkpt>
      <trkpt lat="43.76348" lon="4.17853">
        <ele>73.41</ele>
        <time>2025-07-10T19:03:26.439Z</time>
      </trkpt>
      <trkpt lat="43.76347" lon="4.17843">
        <ele>72.78</ele>
        <time>2025-07-10T19:03:31.732Z</time>
      </trkpt>
      <trkpt lat="43.76341" lon="4.17834">
        <ele>72.35</ele>
        <time>2025-07-10T19:03:37.264Z</time>
      </trkpt>
      <trkpt lat="43.76339" lon="4.17827">
        <ele>71.98</ele>
        <time>2025-07-10T19:03:42.679Z</time>
      </trkpt>
      <trkpt lat="43.76335" lon="4.17818">
        <ele>71.79</ele>
        <time>2025-07-10T19:03:47.850Z</time>
      </trkpt>
      <trkpt lat="43.7633" lon="4.1781">
        <ele>71.76</ele>
        <time>2025-07-10T19:03:53.400Z</time>
      </trkpt>
      <trkpt lat="43.76327" lon="4.17803">
        <ele>70.99</ele>
        <time>2025-07-10T19:03:58.415Z</time>
      </trkpt>
      <trkpt lat="43.76321" lon="4.17796">
        <ele>70.25</ele>
        <time>2025-07-10T19:04:03.478Z</time>
      </trkpt>
      <trkpt lat="43.76316" lon="4.17787">
        <ele>70.04</ele>
        <time>2025-07-10T19:04:08.670Z</time>
      </trkpt>
      <trkpt lat="43.76313" lon="4.17779">
        <ele>69.87</ele>
        <time>2025-07-10T19:04:13.888Z</time>
      </trkpt>
      <trkpt lat="43.76308" lon="4.1777">
        <ele>69.5</ele>
        <time>2025-07-10T19:04:19.263Z</time>
      </trkpt>
      <trkpt lat="43.76303" lon="4.17765">
        <ele>70.03</ele>
        <time>2025-07-10T19:04:24.346Z</time>
      </trkpt>
      <trkpt lat="43.76297" lon="4.17758">
        <ele>69.32</ele>
        <time>2025-07-10T19:04:29.895Z</time>
      </trkpt>
      <trkpt lat="43.76295" lon="4.1775">
        <ele>69.07</ele>
        <time>2025-07-10T19:04:34.921Z</time>
      </trkpt>
      <trkpt lat="43.76292" lon="4.1774">
        <ele>68.28</ele>
        <time>2025-07-10T19:04:40.924Z</time>
      </trkpt>
      <trkpt lat="43.76288" lon="4.17732">
        <ele>67.69</ele>
        <time>2025-07-10T19:04:46.583Z</time>
      </trkpt>
      <trkpt lat="43.76284" lon="4.17724">
        <ele>68.18</ele>
        <time>2025-07-10T19:04:51.878Z</time>
      </trkpt>
      <trkpt lat="43.76284" lon="4.17715">
        <ele>66.57</ele>
        <time>2025-07-10T19:04:57.520Z</time>
      </trkpt>
      <trkpt lat="43.76282" lon="4.17707">
        <ele>66.45</ele>
        <time>2025-07-10T19:05:02.880Z</time>
      </trkpt>
      <trkpt lat="43.76281" lon="4.17696">
        <ele>65.98</ele>
        <time>2025-07-10T19:05:07.885Z</time>
      </trkpt>
      <trkpt lat="43.76287" lon="4.17689">
        <ele>65.55</ele>
        <time>2025-07-10T19:05:12.902Z</time>
      </trkpt>
      <trkpt lat="43.76287" lon="4.17679">
        <ele>64.74</ele>
        <time>2025-07-10T19:05:18.204Z</time>
      </trkpt>
      <trkpt lat="43.76285" lon="4.17668">
        <ele>64.66</ele>
        <time>2025-07-10T19:05:23.583Z</time>
      </trkpt>
      <trkpt lat="43.76284" lon="4.17657">
        <ele>64.2</ele>
        <time>2025-07-10T19:05:28.906Z</time>
      </trkpt>
      <trkpt lat="43.76284" lon="4.17647">
        <ele>63.74</ele>
        <time>2025-07-10T19:05:33.922Z</time>
      </trkpt>
      <trkpt lat="43.76283" lon="4.17637">
        <ele>64.22</ele>
        <time>2025-07-10T19:05:39.146Z</time>
      </trkpt>
      <trkpt lat="43.76282" lon="4.17628">
        <ele>63.78</ele>
        <time>2025-07-10T19:05:44.321Z</time>
      </trkpt>
      <trkpt lat="43.76283" lon="4.17617">
        <ele>63.98</ele>
        <time>2025-07-10T19:05:49.928Z</time>
      </trkpt>
      <trkpt lat="43.76285" lon="4.17607">
        <ele>62.8</ele>
        <time>2025-07-10T19:05:54.944Z</time>
      </trkpt>
      <trkpt lat="43.76285" lon="4.17598">
        <ele>63.04</ele>
        <time>2025-07-10T19:06:00.426Z</time>
      </trkpt>
      <trkpt lat="43.76286" lon="4.17588">
        <ele>63.11</ele>
        <time>2025-07-10T19:06:05.679Z</time>
      </trkpt>
      <trkpt lat="43.76287" lon="4.17578">
        <ele>63.23</ele>
        <time>2025-07-10T19:06:10.843Z</time>
      </trkpt>
      <trkpt lat="43.76289" lon="4.17568">
        <ele>63.59</ele>
        <time>2025-07-10T19:06:16.264Z</time>
      </trkpt>
      <trkpt lat="43.76288" lon="4.17558">
        <ele>64.14</ele>
        <time>2025-07-10T19:06:21.900Z</time>
      </trkpt>
      <trkpt lat="43.76285" lon="4.17548">
        <ele>64.27</ele>
        <time>2025-07-10T19:06:27.459Z</time>
      </trkpt>
      <trkpt lat="43.76285" lon="4.17538">
        <ele>64.64</ele>
        <time>2025-07-10T19:06:32.918Z</time>
      </trkpt>
      <trkpt lat="43.76286" lon="4.17529">
        <ele>65.32</ele>
        <time>2025-07-10T19:06:38.375Z</time>
      </trkpt>
      <trkpt lat="43.76288" lon="4.17521">
        <ele>65.48</ele>
        <time>2025-07-10T19:06:43.400Z</time>
      </trkpt>
      <trkpt lat="43.76293" lon="4.17515">
        <ele>65.23</ele>
        <time>2025-07-10T19:06:48.841Z</time>
      </trkpt>
      <trkpt lat="43.76298" lon="4.17516">
        <ele>63.97</ele>
        <time>2025-07-10T19:06:54.403Z</time>
      </trkpt>
      <trkpt lat="43.76305" lon="4.17511">
        <ele>63.11</ele>
        <time>2025-07-10T19:06:59.832Z</time>
      </trkpt>
      <trkpt lat="43.76311" lon="4.17506">
        <ele>63.65</ele>
        <time>2025-07-10T19:07:05.564Z</time>
      </trkpt>
      <trkpt lat="43.76316" lon="4.17499">
        <ele>64.19</ele>
        <time>2025-07-10T19:07:10.930Z</time>
      </trkpt>
      <trkpt lat="43.76322" lon="4.1749">
        <ele>63.76</ele>
        <time>2025-07-10T19:07:16.420Z</time>
      </trkpt>
      <trkpt lat="43.76322" lon="4.1748">
        <ele>63.9</ele>
        <time>2025-07-10T19:07:21.818Z</time>
      </trkpt>
      <trkpt lat="43.76319" lon="4.17471">
        <ele>63.63</ele>
        <time>2025-07-10T19:07:27.181Z</time>
      </trkpt>
      <trkpt lat="43.76324" lon="4.17461">
        <ele>64.42</ele>
        <time>2025-07-10T19:07:32.704Z</time>
      </trkpt>
      <trkpt lat="43.76326" lon="4.17452">
        <ele>64.83</ele>
        <time>2025-07-10T19:07:37.929Z</time>
      </trkpt>
      <trkpt lat="43.76327" lon="4.17444">
        <ele>65.65</ele>
        <time>2025-07-10T19:07:43.097Z</time>
      </trkpt>
      <trkpt lat="43.76333" lon="4.17441">
        <ele>65.39</ele>
        <time>2025-07-10T19:07:48.385Z</time>
      </trkpt>
      <trkpt lat="43.76337" lon="4.17435">
        <ele>65.76</ele>
        <time>2025-07-10T19:07:53.689Z</time>
      </trkpt>
      <trkpt lat="43.7634" lon="4.17429">
        <ele>65.52</ele>
        <time>2025-07-10T19:07:58.844Z</time>
      </trkpt>
      <trkpt lat="43.76346" lon="4.17426">
        <ele>65.95</ele>
        <time>2025-07-10T19:08:04.022Z</time>
      </trkpt>
      <trkpt lat="43.7635" lon="4.17421">
        <ele>66.16</ele>
        <time>2025-07-10T19:08:09.463Z</time>
      </trkpt>
      <trkpt lat="43.76357" lon="4.17419">
        <ele>65.92</ele>
        <time>2025-07-10T19:08:14.784Z</time>
      </trkpt>
      <trkpt lat="43.76363" lon="4.17416">
        <ele>65.92</ele>
        <time>2025-07-10T19:08:20.279Z</time>
      </trkpt>
      <trkpt lat="43.76366" lon="4.17408">
        <ele>66.81</ele>
        <time>2025-07-10T19:08:25.879Z</time>
      </trkpt>
      <trkpt lat="43.76366" lon="4.17398">
        <ele>67.98</ele>
        <time>2025-07-10T19:08:30.956Z</time>
      </trkpt>
      <trkpt lat="43.76366" lon="4.17389">
        <ele>68.76</ele>
        <time>2025-07-10T19:08:36.257Z</time>
      </trkpt>
      <trkpt lat="43.76372" lon="4.17383">
        <ele>68.81</ele>
        <time>2025-07-10T19:08:41.955Z</time>
      </trkpt>
      <trkpt lat="43.76378" lon="4.17381">
        <ele>68.32</ele>
        <time>2025-07-10T19:08:47.463Z</time>
      </trkpt>
      <trkpt lat="43.76384" lon="4.17377">
        <ele>68.71</ele>
        <time>2025-07-10T19:08:52.903Z</time>
      </trkpt>
      <trkpt lat="43.76391" lon="4.17371">
        <ele>68.64</ele>
        <time>2025-07-10T19:08:58.708Z</time>
      </trkpt>
      <trkpt lat="43.76397" lon="4.17365">
        <ele>70.41</ele>
        <time>2025-07-10T19:09:04.261Z</time>
      </trkpt>
      <trkpt lat="43.76397" lon="4.17355">
        <ele>70.21</ele>
        <time>2025-07-10T19:09:09.365Z</time>
      </trkpt>
      <trkpt lat="43.76396" lon="4.17346">
        <ele>70.22</ele>
        <time>2025-07-10T19:09:14.842Z</time>
      </trkpt>
      <trkpt lat="43.76392" lon="4.17338">
        <ele>71.62</ele>
        <time>2025-07-10T19:09:20.700Z</time>
      </trkpt>
      <trkpt lat="43.76396" lon="4.17329">
        <ele>71.67</ele>
        <time>2025-07-10T19:09:26.304Z</time>
      </trkpt>
      <trkpt lat="43.76397" lon="4.17321">
        <ele>72.91</ele>
        <time>2025-07-10T19:09:31.737Z</time>
      </trkpt>
      <trkpt lat="43.76392" lon="4.17316">
        <ele>73.45</ele>
        <time>2025-07-10T19:09:36.909Z</time>
      </trkpt>
      <trkpt lat="43.76391" lon="4.17309">
        <ele>73.43</ele>
        <time>2025-07-10T19:09:42.764Z</time>
      </trkpt>
      <trkpt lat="43.7639" lon="4.173">
        <ele>74.92</ele>
        <time>2025-07-10T19:09:48.340Z</time>
      </trkpt>
      <trkpt lat="43.7639" lon="4.1729">
        <ele>74.33</ele>
        <time>2025-07-10T19:09:53.880Z</time>
      </trkpt>
      <trkpt lat="43.76392" lon="4.17277">
        <ele>74.11</ele>
        <time>2025-07-10T19:09:59.322Z</time>
      </trkpt>
      <trkpt lat="43.7639" lon="4.17266">
        <ele>72.85</ele>
        <time>2025-07-10T19:10:04.559Z</time>
      </trkpt>
      <trkpt lat="43.76384" lon="4.17258">
        <ele>72.25</ele>
        <time>2025-07-10T19:10:09.937Z</time>
      </trkpt>
      <trkpt lat="43.76378" lon="4.17254">
        <ele>71.73</ele>
        <time>2025-07-10T19:10:15.337Z</time>
      </trkpt>
      <trkpt lat="43.76375" lon="4.17245">
        <ele>71.36</ele>
        <time>2025-07-10T19:10:20.877Z</time>
      </trkpt>
      <trkpt lat="43.76371" lon="4.17236">
        <ele>71.25</ele>
        <time>2025-07-10T19:10:26.241Z</time>
      </trkpt>
      <trkpt lat="43.76367" lon="4.17226">
        <ele>71.58</ele>
        <time>2025-07-10T19:10:31.823Z</time>
      </trkpt>
      <trkpt lat="43.76364" lon="4.17218">
        <ele>71.31</ele>
        <time>2025-07-10T19:10:36.881Z</time>
      </trkpt>
      <trkpt lat="43.76357" lon="4.17211">
        <ele>71.38</ele>
        <time>2025-07-10T19:10:42.677Z</time>
      </trkpt>
      <trkpt lat="43.76352" lon="4.17205">
        <ele>71.17</ele>
        <time>2025-07-10T19:10:47.871Z</time>
      </trkpt>
      <trkpt lat="43.76353" lon="4.17197">
        <ele>70.54</ele>
        <time>2025-07-10T19:10:53.420Z</time>
      </trkpt>
      <trkpt lat="43.7635" lon="4.17191">
        <ele>70.68</ele>
        <time>2025-07-10T19:10:58.436Z</time>
      </trkpt>
      <trkpt lat="43.76347" lon="4.17187">
        <ele>70.47</ele>
        <time>2025-07-10T19:11:03.878Z</time>
      </trkpt>
      <trkpt lat="43.76345" lon="4.17183">
        <ele>70.24</ele>
        <time>2025-07-10T19:11:09.085Z</time>
      </trkpt>
      <trkpt lat="43.76343" lon="4.17174">
        <ele>70.74</ele>
        <time>2025-07-10T19:11:14.126Z</time>
      </trkpt>
      <trkpt lat="43.76341" lon="4.17157">
        <ele>70.28</ele>
        <time>2025-07-10T19:11:19.541Z</time>
      </trkpt>
      <trkpt lat="43.76335" lon="4.17145">
        <ele>69.86</ele>
        <time>2025-07-10T19:11:24.983Z</time>
      </trkpt>
      <trkpt lat="43.7633" lon="4.17137">
        <ele>70.04</ele>
        <time>2025-07-10T19:11:30.442Z</time>
      </trkpt>
      <trkpt lat="43.76328" lon="4.17127">
        <ele>70.16</ele>
        <time>2025-07-10T19:11:35.965Z</time>
      </trkpt>
      <trkpt lat="43.7633" lon="4.17118">
        <ele>69.94</ele>
        <time>2025-07-10T19:11:41.327Z</time>
      </trkpt>
      <trkpt lat="43.76333" lon="4.17109">
        <ele>70.54</ele>
        <time>2025-07-10T19:11:46.375Z</time>
      </trkpt>
      <trkpt lat="43.76332" lon="4.17098">
        <ele>70.77</ele>
        <time>2025-07-10T19:11:51.678Z</time>
      </trkpt>
      <trkpt lat="43.7633" lon="4.17089">
        <ele>71.78</ele>
        <time>2025-07-10T19:11:56.908Z</time>
      </trkpt>
      <trkpt lat="43.76328" lon="4.17081">
        <ele>72.1</ele>
        <time>2025-07-10T19:12:02.367Z</time>
      </trkpt>
      <trkpt lat="43.76326" lon="4.17072">
        <ele>74.28</ele>
        <time>2025-07-10T19:12:07.907Z</time>
      </trkpt>
      <trkpt lat="43.76326" lon="4.17065">
        <ele>76.45</ele>
        <time>2025-07-10T19:12:13.366Z</time>
      </trkpt>
      <trkpt lat="43.76322" lon="4.17058">
        <ele>76.05</ele>
        <time>2025-07-10T19:12:18.845Z</time>
      </trkpt>
      <trkpt lat="43.76315" lon="4.17058">
        <ele>77.86</ele>
        <time>2025-07-10T19:12:23.956Z</time>
      </trkpt>
      <trkpt lat="43.7631" lon="4.17059">
        <ele>77.93</ele>
        <time>2025-07-10T19:12:29.186Z</time>
      </trkpt>
      <trkpt lat="43.76304" lon="4.17057">
        <ele>79.48</ele>
        <time>2025-07-10T19:12:34.274Z</time>
      </trkpt>
      <trkpt lat="43.76298" lon="4.17062">
        <ele>80.35</ele>
        <time>2025-07-10T19:12:39.289Z</time>
      </trkpt>
      <trkpt lat="43.76291" lon="4.17065">
        <ele>80.77</ele>
        <time>2025-07-10T19:12:44.508Z</time>
      </trkpt>
      <trkpt lat="43.76284" lon="4.17063">
        <ele>81.55</ele>
        <time>2025-07-10T19:12:49.551Z</time>
      </trkpt>
      <trkpt lat="43.76279" lon="4.17061">
        <ele>82.4</ele>
        <time>2025-07-10T19:12:54.873Z</time>
      </trkpt>
      <trkpt lat="43.76272" lon="4.1706">
        <ele>83.22</ele>
        <time>2025-07-10T19:12:59.889Z</time>
      </trkpt>
      <trkpt lat="43.76266" lon="4.17062">
        <ele>83.7</ele>
        <time>2025-07-10T19:13:05.035Z</time>
      </trkpt>
      <trkpt lat="43.7626" lon="4.17067">
        <ele>83.59</ele>
        <time>2025-07-10T19:13:10.492Z</time>
      </trkpt>
      <trkpt lat="43.76256" lon="4.17074">
        <ele>83.98</ele>
        <time>2025-07-10T19:13:15.574Z</time>
      </trkpt>
      <trkpt lat="43.76249" lon="4.17079">
        <ele>83.56</ele>
        <time>2025-07-10T19:13:20.910Z</time>
      </trkpt>
      <trkpt lat="43.76241" lon="4.1708">
        <ele>85.23</ele>
        <time>2025-07-10T19:13:26.282Z</time>
      </trkpt>
      <trkpt lat="43.76237" lon="4.17086">
        <ele>82.41</ele>
        <time>2025-07-10T19:13:31.901Z</time>
      </trkpt>
      <trkpt lat="43.76237" lon="4.17091">
        <ele>81.77</ele>
        <time>2025-07-10T19:13:37.877Z</time>
      </trkpt>
      <trkpt lat="43.76219" lon="4.17079">
        <ele>78.59</ele>
        <time>2025-07-10T19:13:42.892Z</time>
      </trkpt>
      <trkpt lat="43.76211" lon="4.17078">
        <ele>83.17</ele>
        <time>2025-07-10T19:13:48.869Z</time>
      </trkpt>
      <trkpt lat="43.76204" lon="4.1708">
        <ele>83.94</ele>
        <time>2025-07-10T19:13:53.885Z</time>
      </trkpt>
      <trkpt lat="43.76198" lon="4.17081">
        <ele>82.91</ele>
        <time>2025-07-10T19:13:58.899Z</time>
      </trkpt>
      <trkpt lat="43.76191" lon="4.17081">
        <ele>83.26</ele>
        <time>2025-07-10T19:14:04.905Z</time>
      </trkpt>
      <trkpt lat="43.76184" lon="4.1708">
        <ele>83.43</ele>
        <time>2025-07-10T19:14:10.748Z</time>
      </trkpt>
      <trkpt lat="43.76178" lon="4.17079">
        <ele>82.08</ele>
        <time>2025-07-10T19:14:15.956Z</time>
      </trkpt>
      <trkpt lat="43.76174" lon="4.17078">
        <ele>80.87</ele>
        <time>2025-07-10T19:14:21.524Z</time>
      </trkpt>
      <trkpt lat="43.76166" lon="4.17081">
        <ele>79.25</ele>
        <time>2025-07-10T19:14:26.860Z</time>
      </trkpt>
      <trkpt lat="43.7616" lon="4.17077">
        <ele>82.17</ele>
        <time>2025-07-10T19:14:32.731Z</time>
      </trkpt>
      <trkpt lat="43.76159" lon="4.17067">
        <ele>82.63</ele>
        <time>2025-07-10T19:14:37.985Z</time>
      </trkpt>
      <trkpt lat="43.76157" lon="4.17056">
        <ele>83.42</ele>
        <time>2025-07-10T19:14:43.369Z</time>
      </trkpt>
      <trkpt lat="43.76155" lon="4.17045">
        <ele>87.54</ele>
        <time>2025-07-10T19:14:48.842Z</time>
      </trkpt>
      <trkpt lat="43.76159" lon="4.17037">
        <ele>83.07</ele>
        <time>2025-07-10T19:14:53.857Z</time>
      </trkpt>
      <trkpt lat="43.76161" lon="4.17028">
        <ele>83.02</ele>
        <time>2025-07-10T19:14:58.874Z</time>
      </trkpt>
      <trkpt lat="43.76162" lon="4.17019">
        <ele>81.49</ele>
        <time>2025-07-10T19:15:03.889Z</time>
      </trkpt>
      <trkpt lat="43.76163" lon="4.1701">
        <ele>84.28</ele>
        <time>2025-07-10T19:15:09.867Z</time>
      </trkpt>
      <trkpt lat="43.76164" lon="4.16997">
        <ele>83.18</ele>
        <time>2025-07-10T19:15:14.880Z</time>
      </trkpt>
      <trkpt lat="43.76164" lon="4.16983">
        <ele>82.93</ele>
        <time>2025-07-10T19:15:20.193Z</time>
      </trkpt>
      <trkpt lat="43.76163" lon="4.16971">
        <ele>82.83</ele>
        <time>2025-07-10T19:15:25.368Z</time>
      </trkpt>
      <trkpt lat="43.76164" lon="4.16959">
        <ele>82.97</ele>
        <time>2025-07-10T19:15:30.792Z</time>
      </trkpt>
      <trkpt lat="43.76164" lon="4.1695">
        <ele>82.49</ele>
        <time>2025-07-10T19:15:35.903Z</time>
      </trkpt>
      <trkpt lat="43.76166" lon="4.1694">
        <ele>82.9</ele>
        <time>2025-07-10T19:15:40.917Z</time>
      </trkpt>
      <trkpt lat="43.76166" lon="4.1693">
        <ele>82.84</ele>
        <time>2025-07-10T19:15:46.693Z</time>
      </trkpt>
      <trkpt lat="43.76167" lon="4.16918">
        <ele>82.53</ele>
        <time>2025-07-10T19:15:51.909Z</time>
      </trkpt>
      <trkpt lat="43.76167" lon="4.16907">
        <ele>82.72</ele>
        <time>2025-07-10T19:15:57.326Z</time>
      </trkpt>
      <trkpt lat="43.76167" lon="4.16899">
        <ele>82.91</ele>
        <time>2025-07-10T19:16:02.683Z</time>
      </trkpt>
      <trkpt lat="43.76167" lon="4.16889">
        <ele>82.74</ele>
        <time>2025-07-10T19:16:07.909Z</time>
      </trkpt>
      <trkpt lat="43.7617" lon="4.16879">
        <ele>82.97</ele>
        <time>2025-07-10T19:16:13.308Z</time>
      </trkpt>
      <trkpt lat="43.76173" lon="4.16871">
        <ele>83.15</ele>
        <time>2025-07-10T19:16:18.669Z</time>
      </trkpt>
      <trkpt lat="43.76175" lon="4.16861">
        <ele>83.85</ele>
        <time>2025-07-10T19:16:24.210Z</time>
      </trkpt>
      <trkpt lat="43.76178" lon="4.16851">
        <ele>84.47</ele>
        <time>2025-07-10T19:16:29.750Z</time>
      </trkpt>
      <trkpt lat="43.7618" lon="4.16839">
        <ele>84.62</ele>
        <time>2025-07-10T19:16:34.832Z</time>
      </trkpt>
      <trkpt lat="43.7618" lon="4.16826">
        <ele>85.02</ele>
        <time>2025-07-10T19:16:40.289Z</time>
      </trkpt>
      <trkpt lat="43.76178" lon="4.16815">
        <ele>85.03</ele>
        <time>2025-07-10T19:16:45.714Z</time>
      </trkpt>
      <trkpt lat="43.76173" lon="4.16806">
        <ele>84.98</ele>
        <time>2025-07-10T19:16:50.885Z</time>
      </trkpt>
      <trkpt lat="43.76169" lon="4.16795">
        <ele>85.63</ele>
        <time>2025-07-10T19:16:56.367Z</time>
      </trkpt>
      <trkpt lat="43.76167" lon="4.16787">
        <ele>85.35</ele>
        <time>2025-07-10T19:17:01.693Z</time>
      </trkpt>
      <trkpt lat="43.76162" lon="4.16779">
        <ele>85.63</ele>
        <time>2025-07-10T19:17:07.028Z</time>
      </trkpt>
      <trkpt lat="43.76157" lon="4.16771">
        <ele>85.5</ele>
        <time>2025-07-10T19:17:12.689Z</time>
      </trkpt>
      <trkpt lat="43.76152" lon="4.16761">
        <ele>85.2</ele>
        <time>2025-07-10T19:17:18.680Z</time>
      </trkpt>
      <trkpt lat="43.76147" lon="4.16753">
        <ele>85.03</ele>
        <time>2025-07-10T19:17:23.893Z</time>
      </trkpt>
      <trkpt lat="43.76141" lon="4.16745">
        <ele>85.19</ele>
        <time>2025-07-10T19:17:28.908Z</time>
      </trkpt>
      <trkpt lat="43.76138" lon="4.16737">
        <ele>85.27</ele>
        <time>2025-07-10T19:17:33.924Z</time>
      </trkpt>
      <trkpt lat="43.76139" lon="4.16728">
        <ele>85.08</ele>
        <time>2025-07-10T19:17:39.910Z</time>
      </trkpt>
      <trkpt lat="43.7614" lon="4.16718">
        <ele>85.06</ele>
        <time>2025-07-10T19:17:44.915Z</time>
      </trkpt>
      <trkpt lat="43.76146" lon="4.16712">
        <ele>84.69</ele>
        <time>2025-07-10T19:17:50.665Z</time>
      </trkpt>
      <trkpt lat="43.7615" lon="4.16706">
        <ele>84.97</ele>
        <time>2025-07-10T19:17:55.905Z</time>
      </trkpt>
      <trkpt lat="43.76149" lon="4.16696">
        <ele>84.45</ele>
        <time>2025-07-10T19:18:00.922Z</time>
      </trkpt>
      <trkpt lat="43.76152" lon="4.16693">
        <ele>84.64</ele>
        <time>2025-07-10T19:18:06.846Z</time>
      </trkpt>
      <trkpt lat="43.76157" lon="4.16688">
        <ele>84.39</ele>
        <time>2025-07-10T19:18:12.245Z</time>
      </trkpt>
      <trkpt lat="43.76162" lon="4.16684">
        <ele>84.35</ele>
        <time>2025-07-10T19:18:17.462Z</time>
      </trkpt>
      <trkpt lat="43.76169" lon="4.16684">
        <ele>84.58</ele>
        <time>2025-07-10T19:18:22.472Z</time>
      </trkpt>
      <trkpt lat="43.76177" lon="4.16689">
        <ele>84.72</ele>
        <time>2025-07-10T19:18:28.546Z</time>
      </trkpt>
      <trkpt lat="43.76179" lon="4.16696">
        <ele>85.26</ele>
        <time>2025-07-10T19:18:33.906Z</time>
      </trkpt>
      <trkpt lat="43.76186" lon="4.16701">
        <ele>85.28</ele>
        <time>2025-07-10T19:18:39.333Z</time>
      </trkpt>
      <trkpt lat="43.76192" lon="4.16702">
        <ele>85.65</ele>
        <time>2025-07-10T19:18:44.691Z</time>
      </trkpt>
      <trkpt lat="43.76193" lon="4.16711">
        <ele>86.12</ele>
        <time>2025-07-10T19:18:49.901Z</time>
      </trkpt>
      <trkpt lat="43.76196" lon="4.16719">
        <ele>86.64</ele>
        <time>2025-07-10T19:18:54.917Z</time>
      </trkpt>
      <trkpt lat="43.76204" lon="4.16724">
        <ele>86.33</ele>
        <time>2025-07-10T19:19:00.726Z</time>
      </trkpt>
      <trkpt lat="43.76205" lon="4.16732">
        <ele>86.79</ele>
        <time>2025-07-10T19:19:05.908Z</time>
      </trkpt>
      <trkpt lat="43.76207" lon="4.16737">
        <ele>86.93</ele>
        <time>2025-07-10T19:19:10.922Z</time>
      </trkpt>
      <trkpt lat="43.76214" lon="4.16737">
        <ele>86.48</ele>
        <time>2025-07-10T19:19:16.769Z</time>
      </trkpt>
      <trkpt lat="43.7622" lon="4.16737">
        <ele>86.8</ele>
        <time>2025-07-10T19:19:21.808Z</time>
      </trkpt>
      <trkpt lat="43.76227" lon="4.16736">
        <ele>87.36</ele>
        <time>2025-07-10T19:19:26.886Z</time>
      </trkpt>
      <trkpt lat="43.76229" lon="4.16723">
        <ele>86.67</ele>
        <time>2025-07-10T19:19:32.731Z</time>
      </trkpt>
      <trkpt lat="43.76226" lon="4.16713">
        <ele>86.19</ele>
        <time>2025-07-10T19:19:37.921Z</time>
      </trkpt>
      <trkpt lat="43.7623" lon="4.16712">
        <ele>86.25</ele>
        <time>2025-07-10T19:19:42.936Z</time>
      </trkpt>
      <trkpt lat="43.76232" lon="4.16704">
        <ele>85.86</ele>
        <time>2025-07-10T19:19:48.569Z</time>
      </trkpt>
      <trkpt lat="43.7623" lon="4.16694">
        <ele>85.31</ele>
        <time>2025-07-10T19:19:53.832Z</time>
      </trkpt>
      <trkpt lat="43.76229" lon="4.16686">
        <ele>84.79</ele>
        <time>2025-07-10T19:19:58.835Z</time>
      </trkpt>
      <trkpt lat="43.76228" lon="4.16677">
        <ele>84.56</ele>
        <time>2025-07-10T19:20:03.850Z</time>
      </trkpt>
      <trkpt lat="43.7622" lon="4.16676">
        <ele>85.08</ele>
        <time>2025-07-10T19:20:09.688Z</time>
      </trkpt>
      <trkpt lat="43.76211" lon="4.16672">
        <ele>85.56</ele>
        <time>2025-07-10T19:20:14.841Z</time>
      </trkpt>
      <trkpt lat="43.76205" lon="4.16665">
        <ele>84.8</ele>
        <time>2025-07-10T19:20:19.857Z</time>
      </trkpt>
      <trkpt lat="43.762" lon="4.1666">
        <ele>84.39</ele>
        <time>2025-07-10T19:20:24.980Z</time>
      </trkpt>
      <trkpt lat="43.76192" lon="4.16657">
        <ele>85.19</ele>
        <time>2025-07-10T19:20:30.568Z</time>
      </trkpt>
      <trkpt lat="43.76183" lon="4.16656">
        <ele>84.19</ele>
        <time>2025-07-10T19:20:35.970Z</time>
      </trkpt>
      <trkpt lat="43.76179" lon="4.16651">
        <ele>84.38</ele>
        <time>2025-07-10T19:20:41.566Z</time>
      </trkpt>
      <trkpt lat="43.76177" lon="4.16642">
        <ele>84.17</ele>
        <time>2025-07-10T19:20:46.848Z</time>
      </trkpt>
      <trkpt lat="43.76179" lon="4.16632">
        <ele>82.86</ele>
        <time>2025-07-10T19:20:52.167Z</time>
      </trkpt>
      <trkpt lat="43.76182" lon="4.16621">
        <ele>83.08</ele>
        <time>2025-07-10T19:20:57.466Z</time>
      </trkpt>
      <trkpt lat="43.76184" lon="4.16611">
        <ele>82.86</ele>
        <time>2025-07-10T19:21:02.686Z</time>
      </trkpt>
      <trkpt lat="43.76182" lon="4.16602">
        <ele>82.6</ele>
        <time>2025-07-10T19:21:07.950Z</time>
      </trkpt>
      <trkpt lat="43.76178" lon="4.16592">
        <ele>82.19</ele>
        <time>2025-07-10T19:21:13.269Z</time>
      </trkpt>
      <trkpt lat="43.76177" lon="4.16581">
        <ele>81.36</ele>
        <time>2025-07-10T19:21:18.693Z</time>
      </trkpt>
      <trkpt lat="43.76177" lon="4.16569">
        <ele>81.27</ele>
        <time>2025-07-10T19:21:23.930Z</time>
      </trkpt>
      <trkpt lat="43.7618" lon="4.16562">
        <ele>80.95</ele>
        <time>2025-07-10T19:21:29.152Z</time>
      </trkpt>
      <trkpt lat="43.76184" lon="4.16554">
        <ele>80.78</ele>
        <time>2025-07-10T19:21:34.480Z</time>
      </trkpt>
      <trkpt lat="43.76187" lon="4.16544">
        <ele>80.61</ele>
        <time>2025-07-10T19:21:39.831Z</time>
      </trkpt>
      <trkpt lat="43.7619" lon="4.16535">
        <ele>80.21</ele>
        <time>2025-07-10T19:21:44.905Z</time>
      </trkpt>
      <trkpt lat="43.76188" lon="4.16525">
        <ele>79.84</ele>
        <time>2025-07-10T19:21:49.919Z</time>
      </trkpt>
      <trkpt lat="43.76185" lon="4.16514">
        <ele>80</ele>
        <time>2025-07-10T19:21:55.046Z</time>
      </trkpt>
      <trkpt lat="43.76183" lon="4.16505">
        <ele>79.71</ele>
        <time>2025-07-10T19:22:00.376Z</time>
      </trkpt>
      <trkpt lat="43.76182" lon="4.16497">
        <ele>79.8</ele>
        <time>2025-07-10T19:22:05.434Z</time>
      </trkpt>
      <trkpt lat="43.7618" lon="4.1649">
        <ele>79.67</ele>
        <time>2025-07-10T19:22:10.942Z</time>
      </trkpt>
      <trkpt lat="43.76175" lon="4.16479">
        <ele>79.51</ele>
        <time>2025-07-10T19:22:16.146Z</time>
      </trkpt>
      <trkpt lat="43.76175" lon="4.16469">
        <ele>79.97</ele>
        <time>2025-07-10T19:22:21.190Z</time>
      </trkpt>
      <trkpt lat="43.76177" lon="4.16459">
        <ele>79.69</ele>
        <time>2025-07-10T19:22:26.391Z</time>
      </trkpt>
      <trkpt lat="43.76178" lon="4.1645">
        <ele>80.71</ele>
        <time>2025-07-10T19:22:31.856Z</time>
      </trkpt>
      <trkpt lat="43.76182" lon="4.16443">
        <ele>79.87</ele>
        <time>2025-07-10T19:22:36.872Z</time>
      </trkpt>
      <trkpt lat="43.76189" lon="4.16439">
        <ele>78.04</ele>
        <time>2025-07-10T19:22:42.847Z</time>
      </trkpt>
      <trkpt lat="43.76192" lon="4.16428">
        <ele>80.28</ele>
        <time>2025-07-10T19:22:48.397Z</time>
      </trkpt>
      <trkpt lat="43.76193" lon="4.16414">
        <ele>80.81</ele>
        <time>2025-07-10T19:22:53.825Z</time>
      </trkpt>
      <trkpt lat="43.76192" lon="4.16401">
        <ele>80.98</ele>
        <time>2025-07-10T19:22:58.853Z</time>
      </trkpt>
      <trkpt lat="43.76194" lon="4.16391">
        <ele>81.47</ele>
        <time>2025-07-10T19:23:04.308Z</time>
      </trkpt>
      <trkpt lat="43.76194" lon="4.16383">
        <ele>81.74</ele>
        <time>2025-07-10T19:23:09.684Z</time>
      </trkpt>
      <trkpt lat="43.76194" lon="4.16373">
        <ele>81.91</ele>
        <time>2025-07-10T19:23:14.859Z</time>
      </trkpt>
      <trkpt lat="43.76196" lon="4.16362">
        <ele>82.08</ele>
        <time>2025-07-10T19:23:19.876Z</time>
      </trkpt>
      <trkpt lat="43.76196" lon="4.16352">
        <ele>82.58</ele>
        <time>2025-07-10T19:23:25.829Z</time>
      </trkpt>
      <trkpt lat="43.76197" lon="4.16342">
        <ele>83.19</ele>
        <time>2025-07-10T19:23:31.328Z</time>
      </trkpt>
      <trkpt lat="43.76198" lon="4.16332">
        <ele>83.24</ele>
        <time>2025-07-10T19:23:36.681Z</time>
      </trkpt>
      <trkpt lat="43.76197" lon="4.16321">
        <ele>83.88</ele>
        <time>2025-07-10T19:23:41.857Z</time>
      </trkpt>
      <trkpt lat="43.76197" lon="4.1631">
        <ele>83.74</ele>
        <time>2025-07-10T19:23:47.507Z</time>
      </trkpt>
      <trkpt lat="43.76198" lon="4.163">
        <ele>84.5</ele>
        <time>2025-07-10T19:23:52.848Z</time>
      </trkpt>
      <trkpt lat="43.76199" lon="4.1629">
        <ele>84.84</ele>
        <time>2025-07-10T19:23:57.863Z</time>
      </trkpt>
      <trkpt lat="43.762" lon="4.16279">
        <ele>85.48</ele>
        <time>2025-07-10T19:24:03.762Z</time>
      </trkpt>
      <trkpt lat="43.76201" lon="4.16266">
        <ele>85.57</ele>
        <time>2025-07-10T19:24:09.026Z</time>
      </trkpt>
      <trkpt lat="43.76204" lon="4.16257">
        <ele>85.51</ele>
        <time>2025-07-10T19:24:14.522Z</time>
      </trkpt>
      <trkpt lat="43.76205" lon="4.16247">
        <ele>85.73</ele>
        <time>2025-07-10T19:24:19.902Z</time>
      </trkpt>
      <trkpt lat="43.76207" lon="4.16237">
        <ele>86.18</ele>
        <time>2025-07-10T19:24:25.283Z</time>
      </trkpt>
      <trkpt lat="43.76207" lon="4.16227">
        <ele>86.73</ele>
        <time>2025-07-10T19:24:30.706Z</time>
      </trkpt>
      <trkpt lat="43.76208" lon="4.16215">
        <ele>86.49</ele>
        <time>2025-07-10T19:24:36.149Z</time>
      </trkpt>
      <trkpt lat="43.76209" lon="4.16206">
        <ele>86.77</ele>
        <time>2025-07-10T19:24:41.546Z</time>
      </trkpt>
      <trkpt lat="43.7621" lon="4.16195">
        <ele>86.82</ele>
        <time>2025-07-10T19:24:46.950Z</time>
      </trkpt>
      <trkpt lat="43.76212" lon="4.16184">
        <ele>87.06</ele>
        <time>2025-07-10T19:24:52.715Z</time>
      </trkpt>
      <trkpt lat="43.76215" lon="4.16174">
        <ele>87.28</ele>
        <time>2025-07-10T19:24:58.672Z</time>
      </trkpt>
      <trkpt lat="43.76218" lon="4.16163">
        <ele>86.74</ele>
        <time>2025-07-10T19:25:03.990Z</time>
      </trkpt>
      <trkpt lat="43.76224" lon="4.16151">
        <ele>86.79</ele>
        <time>2025-07-10T19:25:09.689Z</time>
      </trkpt>
      <trkpt lat="43.76227" lon="4.16143">
        <ele>86.65</ele>
        <time>2025-07-10T19:25:14.915Z</time>
      </trkpt>
      <trkpt lat="43.7623" lon="4.16133">
        <ele>86.84</ele>
        <time>2025-07-10T19:25:20.771Z</time>
      </trkpt>
      <trkpt lat="43.76234" lon="4.16122">
        <ele>86.34</ele>
        <time>2025-07-10T19:25:25.907Z</time>
      </trkpt>
      <trkpt lat="43.76239" lon="4.16115">
        <ele>85.83</ele>
        <time>2025-07-10T19:25:30.922Z</time>
      </trkpt>
      <trkpt lat="43.76241" lon="4.16107">
        <ele>86.09</ele>
        <time>2025-07-10T19:25:36.128Z</time>
      </trkpt>
      <trkpt lat="43.76243" lon="4.16096">
        <ele>85.68</ele>
        <time>2025-07-10T19:25:41.198Z</time>
      </trkpt>
      <trkpt lat="43.76247" lon="4.16088">
        <ele>85.36</ele>
        <time>2025-07-10T19:25:46.567Z</time>
      </trkpt>
      <trkpt lat="43.76251" lon="4.16078">
        <ele>85.55</ele>
        <time>2025-07-10T19:25:51.927Z</time>
      </trkpt>
      <trkpt lat="43.76255" lon="4.16069">
        <ele>84.96</ele>
        <time>2025-07-10T19:25:57.292Z</time>
      </trkpt>
      <trkpt lat="43.76259" lon="4.16061">
        <ele>84.34</ele>
        <time>2025-07-10T19:26:02.669Z</time>
      </trkpt>
      <trkpt lat="43.76261" lon="4.16051">
        <ele>84.4</ele>
        <time>2025-07-10T19:26:07.842Z</time>
      </trkpt>
      <trkpt lat="43.76264" lon="4.16042">
        <ele>84.29</ele>
        <time>2025-07-10T19:26:12.852Z</time>
      </trkpt>
      <trkpt lat="43.76269" lon="4.16035">
        <ele>84.45</ele>
        <time>2025-07-10T19:26:17.911Z</time>
      </trkpt>
      <trkpt lat="43.76275" lon="4.16028">
        <ele>83.85</ele>
        <time>2025-07-10T19:26:23.129Z</time>
      </trkpt>
      <trkpt lat="43.76276" lon="4.16018">
        <ele>81.96</ele>
        <time>2025-07-10T19:26:28.864Z</time>
      </trkpt>
      <trkpt lat="43.76282" lon="4.16011">
        <ele>84.36</ele>
        <time>2025-07-10T19:26:33.878Z</time>
      </trkpt>
      <trkpt lat="43.7629" lon="4.16006">
        <ele>84.74</ele>
        <time>2025-07-10T19:26:39.854Z</time>
      </trkpt>
      <trkpt lat="43.76299" lon="4.16003">
        <ele>84.29</ele>
        <time>2025-07-10T19:26:45.936Z</time>
      </trkpt>
      <trkpt lat="43.76307" lon="4.15996">
        <ele>84.06</ele>
        <time>2025-07-10T19:26:51.912Z</time>
      </trkpt>
      <trkpt lat="43.76313" lon="4.15992">
        <ele>85.25</ele>
        <time>2025-07-10T19:26:56.927Z</time>
      </trkpt>
      <trkpt lat="43.76318" lon="4.15982">
        <ele>83.32</ele>
        <time>2025-07-10T19:27:02.904Z</time>
      </trkpt>
    </trkseg>
  </trk>
</gpx>